<?xml version="1.0" encoding="UTF-8" standalone="no" ?>
<gpx xmlns="http://www.topografix.com/GPX/1/1" xmlns:xsi="http://www.w3.org/2001/XMLSchema-instance" xsi:schemaLocation="http://www.topografix.com/GPX/1/1 http://www.topografix.com/GPX/1/1/gpx.xsd" version="1.1" creator="VisuGPX - https://www.visugpx.com">
  <metadata>
    <name>Leca / refuge deveza</name>
    <desc><![CDATA[très jolie randonnée en forêt aérée avec très peu de pentes raides; beaux chemins; vue dégagée sur les hauteurs.]]></desc>
  </metadata>
  <trk>
    <name><![CDATA[leca estanyol]]></name>
    <cmt><![CDATA[20 sept. 2017 à 09:24:38]]></cmt>
    <trkseg>
      <trkpt lat="42.47365" lon="2.54442">
        <ele>914</ele>
        <time>2017-09-20T07:24:39Z</time>
      </trkpt>
      <trkpt lat="42.47365" lon="2.54435">
        <ele>918</ele>
        <time>2017-09-20T07:25:32Z</time>
      </trkpt>
      <trkpt lat="42.4736" lon="2.54435">
        <ele>919</ele>
        <time>2017-09-20T07:26:52Z</time>
      </trkpt>
      <trkpt lat="42.47359" lon="2.54429">
        <ele>920</ele>
        <time>2017-09-20T07:27:39Z</time>
      </trkpt>
      <trkpt lat="42.47357" lon="2.54421">
        <ele>920</ele>
        <time>2017-09-20T07:29:50Z</time>
      </trkpt>
      <trkpt lat="42.47342" lon="2.54419">
        <ele>920</ele>
        <time>2017-09-20T07:30:03Z</time>
      </trkpt>
      <trkpt lat="42.47337" lon="2.5442">
        <ele>920</ele>
        <time>2017-09-20T07:30:09Z</time>
      </trkpt>
      <trkpt lat="42.47324" lon="2.5441">
        <ele>920</ele>
        <time>2017-09-20T07:30:25Z</time>
      </trkpt>
      <trkpt lat="42.47311" lon="2.54403">
        <ele>920</ele>
        <time>2017-09-20T07:30:41Z</time>
      </trkpt>
      <trkpt lat="42.47308" lon="2.54399">
        <ele>920</ele>
        <time>2017-09-20T07:30:50Z</time>
      </trkpt>
      <trkpt lat="42.47302" lon="2.54384">
        <ele>920</ele>
        <time>2017-09-20T07:31:10Z</time>
      </trkpt>
      <trkpt lat="42.47298" lon="2.54371">
        <ele>921</ele>
        <time>2017-09-20T07:31:22Z</time>
      </trkpt>
      <trkpt lat="42.473" lon="2.54358">
        <ele>923</ele>
        <time>2017-09-20T07:31:34Z</time>
      </trkpt>
      <trkpt lat="42.47298" lon="2.54351">
        <ele>924</ele>
        <time>2017-09-20T07:31:41Z</time>
      </trkpt>
      <trkpt lat="42.47295" lon="2.54347">
        <ele>925</ele>
        <time>2017-09-20T07:31:47Z</time>
      </trkpt>
      <trkpt lat="42.4729" lon="2.54344">
        <ele>925</ele>
        <time>2017-09-20T07:31:55Z</time>
      </trkpt>
      <trkpt lat="42.47291" lon="2.54336">
        <ele>926</ele>
        <time>2017-09-20T07:32:02Z</time>
      </trkpt>
      <trkpt lat="42.47285" lon="2.5432">
        <ele>929</ele>
        <time>2017-09-20T07:32:23Z</time>
      </trkpt>
      <trkpt lat="42.4729" lon="2.543">
        <ele>932</ele>
        <time>2017-09-20T07:32:54Z</time>
      </trkpt>
      <trkpt lat="42.47293" lon="2.54275">
        <ele>933</ele>
        <time>2017-09-20T07:33:18Z</time>
      </trkpt>
      <trkpt lat="42.47295" lon="2.54262">
        <ele>934</ele>
        <time>2017-09-20T07:33:33Z</time>
      </trkpt>
      <trkpt lat="42.473" lon="2.54252">
        <ele>934</ele>
        <time>2017-09-20T07:33:46Z</time>
      </trkpt>
      <trkpt lat="42.47304" lon="2.5424">
        <ele>936</ele>
        <time>2017-09-20T07:34:14Z</time>
      </trkpt>
      <trkpt lat="42.47318" lon="2.54224">
        <ele>937</ele>
        <time>2017-09-20T07:34:33Z</time>
      </trkpt>
      <trkpt lat="42.47322" lon="2.54198">
        <ele>942</ele>
        <time>2017-09-20T07:35:02Z</time>
      </trkpt>
      <trkpt lat="42.4732" lon="2.54186">
        <ele>943</ele>
        <time>2017-09-20T07:35:16Z</time>
      </trkpt>
      <trkpt lat="42.47326" lon="2.54176">
        <ele>945</ele>
        <time>2017-09-20T07:35:30Z</time>
      </trkpt>
      <trkpt lat="42.47331" lon="2.54165">
        <ele>946</ele>
        <time>2017-09-20T07:35:40Z</time>
      </trkpt>
      <trkpt lat="42.47326" lon="2.54153">
        <ele>948</ele>
        <time>2017-09-20T07:35:57Z</time>
      </trkpt>
      <trkpt lat="42.47322" lon="2.54125">
        <ele>953</ele>
        <time>2017-09-20T07:36:41Z</time>
      </trkpt>
      <trkpt lat="42.47315" lon="2.54101">
        <ele>958</ele>
        <time>2017-09-20T07:37:16Z</time>
      </trkpt>
      <trkpt lat="42.47312" lon="2.54089">
        <ele>959</ele>
        <time>2017-09-20T07:37:35Z</time>
      </trkpt>
      <trkpt lat="42.47306" lon="2.54076">
        <ele>964</ele>
        <time>2017-09-20T07:37:59Z</time>
      </trkpt>
      <trkpt lat="42.47309" lon="2.54061">
        <ele>967</ele>
        <time>2017-09-20T07:38:18Z</time>
      </trkpt>
      <trkpt lat="42.47302" lon="2.54046">
        <ele>969</ele>
        <time>2017-09-20T07:38:38Z</time>
      </trkpt>
      <trkpt lat="42.47298" lon="2.54034">
        <ele>970</ele>
        <time>2017-09-20T07:38:50Z</time>
      </trkpt>
      <trkpt lat="42.47306" lon="2.54027">
        <ele>971</ele>
        <time>2017-09-20T07:39:05Z</time>
      </trkpt>
      <trkpt lat="42.47305" lon="2.54014">
        <ele>973</ele>
        <time>2017-09-20T07:39:20Z</time>
      </trkpt>
      <trkpt lat="42.47298" lon="2.53999">
        <ele>975</ele>
        <time>2017-09-20T07:39:48Z</time>
      </trkpt>
      <trkpt lat="42.47297" lon="2.53984">
        <ele>977</ele>
        <time>2017-09-20T07:40:04Z</time>
      </trkpt>
      <trkpt lat="42.47284" lon="2.53958">
        <ele>980</ele>
        <time>2017-09-20T07:40:42Z</time>
      </trkpt>
      <trkpt lat="42.4728" lon="2.53932">
        <ele>984</ele>
        <time>2017-09-20T07:41:22Z</time>
      </trkpt>
      <trkpt lat="42.47264" lon="2.53916">
        <ele>989</ele>
        <time>2017-09-20T07:41:54Z</time>
      </trkpt>
      <trkpt lat="42.47251" lon="2.53902">
        <ele>993</ele>
        <time>2017-09-20T07:42:30Z</time>
      </trkpt>
      <trkpt lat="42.47242" lon="2.53889">
        <ele>996</ele>
        <time>2017-09-20T07:42:47Z</time>
      </trkpt>
      <trkpt lat="42.47226" lon="2.53858">
        <ele>1001</ele>
        <time>2017-09-20T07:43:26Z</time>
      </trkpt>
      <trkpt lat="42.47218" lon="2.53852">
        <ele>1002</ele>
        <time>2017-09-20T07:43:33Z</time>
      </trkpt>
      <trkpt lat="42.47213" lon="2.5384">
        <ele>1003</ele>
        <time>2017-09-20T07:43:47Z</time>
      </trkpt>
      <trkpt lat="42.4721" lon="2.53828">
        <ele>1004</ele>
        <time>2017-09-20T07:43:57Z</time>
      </trkpt>
      <trkpt lat="42.47204" lon="2.5382">
        <ele>1005</ele>
        <time>2017-09-20T07:44:08Z</time>
      </trkpt>
      <trkpt lat="42.47186" lon="2.53808">
        <ele>1008</ele>
        <time>2017-09-20T07:44:39Z</time>
      </trkpt>
      <trkpt lat="42.47175" lon="2.53798">
        <ele>1012</ele>
        <time>2017-09-20T07:45:09Z</time>
      </trkpt>
      <trkpt lat="42.47176" lon="2.53781">
        <ele>1014</ele>
        <time>2017-09-20T07:45:34Z</time>
      </trkpt>
      <trkpt lat="42.47172" lon="2.53767">
        <ele>1017</ele>
        <time>2017-09-20T07:45:54Z</time>
      </trkpt>
      <trkpt lat="42.47182" lon="2.53771">
        <ele>1018</ele>
        <time>2017-09-20T07:46:45Z</time>
      </trkpt>
      <trkpt lat="42.47194" lon="2.53778">
        <ele>1019</ele>
        <time>2017-09-20T07:46:59Z</time>
      </trkpt>
      <trkpt lat="42.47211" lon="2.53781">
        <ele>1024</ele>
        <time>2017-09-20T07:47:44Z</time>
      </trkpt>
      <trkpt lat="42.4722" lon="2.53785">
        <ele>1027</ele>
        <time>2017-09-20T07:47:56Z</time>
      </trkpt>
      <trkpt lat="42.47247" lon="2.53789">
        <ele>1031</ele>
        <time>2017-09-20T07:48:25Z</time>
      </trkpt>
      <trkpt lat="42.47256" lon="2.53786">
        <ele>1032</ele>
        <time>2017-09-20T07:48:38Z</time>
      </trkpt>
      <trkpt lat="42.4725" lon="2.53786">
        <ele>1033</ele>
        <time>2017-09-20T07:48:55Z</time>
      </trkpt>
      <trkpt lat="42.47246" lon="2.53782">
        <ele>1034</ele>
        <time>2017-09-20T07:49:04Z</time>
      </trkpt>
      <trkpt lat="42.47237" lon="2.53778">
        <ele>1037</ele>
        <time>2017-09-20T07:49:18Z</time>
      </trkpt>
      <trkpt lat="42.47233" lon="2.53774">
        <ele>1036</ele>
        <time>2017-09-20T07:49:25Z</time>
      </trkpt>
      <trkpt lat="42.47234" lon="2.53768">
        <ele>1033</ele>
        <time>2017-09-20T07:49:45Z</time>
      </trkpt>
      <trkpt lat="42.47245" lon="2.53761">
        <ele>1034</ele>
        <time>2017-09-20T07:50:04Z</time>
      </trkpt>
      <trkpt lat="42.4725" lon="2.5376">
        <ele>1036</ele>
        <time>2017-09-20T07:50:11Z</time>
      </trkpt>
      <trkpt lat="42.47259" lon="2.53754">
        <ele>1037</ele>
        <time>2017-09-20T07:50:23Z</time>
      </trkpt>
      <trkpt lat="42.47262" lon="2.5375">
        <ele>1038</ele>
        <time>2017-09-20T07:50:30Z</time>
      </trkpt>
      <trkpt lat="42.47264" lon="2.53743">
        <ele>1039</ele>
        <time>2017-09-20T07:50:37Z</time>
      </trkpt>
      <trkpt lat="42.47268" lon="2.5374">
        <ele>1038</ele>
        <time>2017-09-20T07:50:43Z</time>
      </trkpt>
      <trkpt lat="42.47269" lon="2.53734">
        <ele>1038</ele>
        <time>2017-09-20T07:50:49Z</time>
      </trkpt>
      <trkpt lat="42.47271" lon="2.53728">
        <ele>1038</ele>
        <time>2017-09-20T07:50:56Z</time>
      </trkpt>
      <trkpt lat="42.47272" lon="2.53721">
        <ele>1038</ele>
        <time>2017-09-20T07:51:02Z</time>
      </trkpt>
      <trkpt lat="42.47272" lon="2.53708">
        <ele>1040</ele>
        <time>2017-09-20T07:51:18Z</time>
      </trkpt>
      <trkpt lat="42.47269" lon="2.53702">
        <ele>1040</ele>
        <time>2017-09-20T07:51:24Z</time>
      </trkpt>
      <trkpt lat="42.47268" lon="2.53696">
        <ele>1041</ele>
        <time>2017-09-20T07:51:32Z</time>
      </trkpt>
      <trkpt lat="42.47267" lon="2.53686">
        <ele>1042</ele>
        <time>2017-09-20T07:51:50Z</time>
      </trkpt>
      <trkpt lat="42.47262" lon="2.53676">
        <ele>1044</ele>
        <time>2017-09-20T07:52:01Z</time>
      </trkpt>
      <trkpt lat="42.47264" lon="2.53668">
        <ele>1045</ele>
        <time>2017-09-20T07:52:11Z</time>
      </trkpt>
      <trkpt lat="42.47262" lon="2.5366">
        <ele>1046</ele>
        <time>2017-09-20T07:52:20Z</time>
      </trkpt>
      <trkpt lat="42.47264" lon="2.53648">
        <ele>1047</ele>
        <time>2017-09-20T07:52:36Z</time>
      </trkpt>
      <trkpt lat="42.47269" lon="2.53638">
        <ele>1049</ele>
        <time>2017-09-20T07:52:51Z</time>
      </trkpt>
      <trkpt lat="42.47268" lon="2.53613">
        <ele>1052</ele>
        <time>2017-09-20T07:53:16Z</time>
      </trkpt>
      <trkpt lat="42.47273" lon="2.53602">
        <ele>1052</ele>
        <time>2017-09-20T07:53:29Z</time>
      </trkpt>
      <trkpt lat="42.47275" lon="2.53577">
        <ele>1056</ele>
        <time>2017-09-20T07:53:59Z</time>
      </trkpt>
      <trkpt lat="42.47272" lon="2.53563">
        <ele>1058</ele>
        <time>2017-09-20T07:54:14Z</time>
      </trkpt>
      <trkpt lat="42.47278" lon="2.53539">
        <ele>1062</ele>
        <time>2017-09-20T07:54:48Z</time>
      </trkpt>
      <trkpt lat="42.47275" lon="2.53521">
        <ele>1064</ele>
        <time>2017-09-20T07:55:16Z</time>
      </trkpt>
      <trkpt lat="42.47276" lon="2.53508">
        <ele>1066</ele>
        <time>2017-09-20T07:55:28Z</time>
      </trkpt>
      <trkpt lat="42.47282" lon="2.535">
        <ele>1067</ele>
        <time>2017-09-20T07:55:36Z</time>
      </trkpt>
      <trkpt lat="42.47283" lon="2.53475">
        <ele>1071</ele>
        <time>2017-09-20T07:56:05Z</time>
      </trkpt>
      <trkpt lat="42.47274" lon="2.53469">
        <ele>1072</ele>
        <time>2017-09-20T07:58:34Z</time>
      </trkpt>
      <trkpt lat="42.47284" lon="2.53458">
        <ele>1072</ele>
        <time>2017-09-20T08:00:07Z</time>
      </trkpt>
      <trkpt lat="42.47291" lon="2.5345">
        <ele>1075</ele>
        <time>2017-09-20T08:00:19Z</time>
      </trkpt>
      <trkpt lat="42.47293" lon="2.53437">
        <ele>1077</ele>
        <time>2017-09-20T08:00:33Z</time>
      </trkpt>
      <trkpt lat="42.47293" lon="2.53425">
        <ele>1079</ele>
        <time>2017-09-20T08:00:46Z</time>
      </trkpt>
      <trkpt lat="42.47297" lon="2.53413">
        <ele>1081</ele>
        <time>2017-09-20T08:01:05Z</time>
      </trkpt>
      <trkpt lat="42.47303" lon="2.53403">
        <ele>1084</ele>
        <time>2017-09-20T08:01:19Z</time>
      </trkpt>
      <trkpt lat="42.47304" lon="2.53393">
        <ele>1085</ele>
        <time>2017-09-20T08:01:32Z</time>
      </trkpt>
      <trkpt lat="42.47303" lon="2.53387">
        <ele>1086</ele>
        <time>2017-09-20T08:01:39Z</time>
      </trkpt>
      <trkpt lat="42.47303" lon="2.53381">
        <ele>1087</ele>
        <time>2017-09-20T08:01:47Z</time>
      </trkpt>
      <trkpt lat="42.47305" lon="2.53375">
        <ele>1088</ele>
        <time>2017-09-20T08:01:55Z</time>
      </trkpt>
      <trkpt lat="42.47308" lon="2.5337">
        <ele>1089</ele>
        <time>2017-09-20T08:02:01Z</time>
      </trkpt>
      <trkpt lat="42.47307" lon="2.5336">
        <ele>1090</ele>
        <time>2017-09-20T08:02:16Z</time>
      </trkpt>
      <trkpt lat="42.47314" lon="2.53352">
        <ele>1091</ele>
        <time>2017-09-20T08:02:27Z</time>
      </trkpt>
      <trkpt lat="42.47313" lon="2.53345">
        <ele>1092</ele>
        <time>2017-09-20T08:02:34Z</time>
      </trkpt>
      <trkpt lat="42.47316" lon="2.5332">
        <ele>1096</ele>
        <time>2017-09-20T08:03:09Z</time>
      </trkpt>
      <trkpt lat="42.4731" lon="2.53314">
        <ele>1097</ele>
        <time>2017-09-20T08:03:16Z</time>
      </trkpt>
      <trkpt lat="42.47307" lon="2.53306">
        <ele>1098</ele>
        <time>2017-09-20T08:03:31Z</time>
      </trkpt>
      <trkpt lat="42.47309" lon="2.53295">
        <ele>1100</ele>
        <time>2017-09-20T08:03:44Z</time>
      </trkpt>
      <trkpt lat="42.47311" lon="2.53289">
        <ele>1101</ele>
        <time>2017-09-20T08:03:50Z</time>
      </trkpt>
      <trkpt lat="42.47311" lon="2.53283">
        <ele>1102</ele>
        <time>2017-09-20T08:03:57Z</time>
      </trkpt>
      <trkpt lat="42.4731" lon="2.53273">
        <ele>1103</ele>
        <time>2017-09-20T08:04:10Z</time>
      </trkpt>
      <trkpt lat="42.47312" lon="2.53253">
        <ele>1106</ele>
        <time>2017-09-20T08:04:38Z</time>
      </trkpt>
      <trkpt lat="42.4731" lon="2.53237">
        <ele>1108</ele>
        <time>2017-09-20T08:05:00Z</time>
      </trkpt>
      <trkpt lat="42.47304" lon="2.5322">
        <ele>1108</ele>
        <time>2017-09-20T08:05:10Z</time>
      </trkpt>
      <trkpt lat="42.47306" lon="2.53214">
        <ele>1108</ele>
        <time>2017-09-20T08:05:19Z</time>
      </trkpt>
      <trkpt lat="42.47311" lon="2.53218">
        <ele>1108</ele>
        <time>2017-09-20T08:05:39Z</time>
      </trkpt>
      <trkpt lat="42.47319" lon="2.53211">
        <ele>1110</ele>
        <time>2017-09-20T08:05:50Z</time>
      </trkpt>
      <trkpt lat="42.47331" lon="2.5321">
        <ele>1111</ele>
        <time>2017-09-20T08:06:00Z</time>
      </trkpt>
      <trkpt lat="42.47335" lon="2.53207">
        <ele>1112</ele>
        <time>2017-09-20T08:06:09Z</time>
      </trkpt>
      <trkpt lat="42.47339" lon="2.53202">
        <ele>1113</ele>
        <time>2017-09-20T08:06:18Z</time>
      </trkpt>
      <trkpt lat="42.47343" lon="2.53183">
        <ele>1117</ele>
        <time>2017-09-20T08:06:42Z</time>
      </trkpt>
      <trkpt lat="42.47348" lon="2.53181">
        <ele>1118</ele>
        <time>2017-09-20T08:06:48Z</time>
      </trkpt>
      <trkpt lat="42.47355" lon="2.53164">
        <ele>1121</ele>
        <time>2017-09-20T08:07:09Z</time>
      </trkpt>
      <trkpt lat="42.47357" lon="2.53158">
        <ele>1122</ele>
        <time>2017-09-20T08:07:22Z</time>
      </trkpt>
      <trkpt lat="42.47362" lon="2.53144">
        <ele>1125</ele>
        <time>2017-09-20T08:07:41Z</time>
      </trkpt>
      <trkpt lat="42.47365" lon="2.53132">
        <ele>1126</ele>
        <time>2017-09-20T08:07:54Z</time>
      </trkpt>
      <trkpt lat="42.47376" lon="2.53107">
        <ele>1131</ele>
        <time>2017-09-20T08:08:29Z</time>
      </trkpt>
      <trkpt lat="42.47375" lon="2.53099">
        <ele>1131</ele>
        <time>2017-09-20T08:08:35Z</time>
      </trkpt>
      <trkpt lat="42.47373" lon="2.53093">
        <ele>1132</ele>
        <time>2017-09-20T08:08:42Z</time>
      </trkpt>
      <trkpt lat="42.47367" lon="2.53082">
        <ele>1134</ele>
        <time>2017-09-20T08:08:54Z</time>
      </trkpt>
      <trkpt lat="42.47362" lon="2.53071">
        <ele>1136</ele>
        <time>2017-09-20T08:09:13Z</time>
      </trkpt>
      <trkpt lat="42.47366" lon="2.53059">
        <ele>1136</ele>
        <time>2017-09-20T08:09:25Z</time>
      </trkpt>
      <trkpt lat="42.47373" lon="2.5305">
        <ele>1138</ele>
        <time>2017-09-20T08:09:38Z</time>
      </trkpt>
      <trkpt lat="42.47377" lon="2.53038">
        <ele>1140</ele>
        <time>2017-09-20T08:10:16Z</time>
      </trkpt>
      <trkpt lat="42.47402" lon="2.53022">
        <ele>1146</ele>
        <time>2017-09-20T08:11:02Z</time>
      </trkpt>
      <trkpt lat="42.47411" lon="2.53017">
        <ele>1148</ele>
        <time>2017-09-20T08:11:16Z</time>
      </trkpt>
      <trkpt lat="42.47421" lon="2.53016">
        <ele>1151</ele>
        <time>2017-09-20T08:11:29Z</time>
      </trkpt>
      <trkpt lat="42.47429" lon="2.53009">
        <ele>1152</ele>
        <time>2017-09-20T08:11:40Z</time>
      </trkpt>
      <trkpt lat="42.47434" lon="2.53008">
        <ele>1152</ele>
        <time>2017-09-20T08:11:47Z</time>
      </trkpt>
      <trkpt lat="42.47437" lon="2.53003">
        <ele>1153</ele>
        <time>2017-09-20T08:11:55Z</time>
      </trkpt>
      <trkpt lat="42.47443" lon="2.52999">
        <ele>1154</ele>
        <time>2017-09-20T08:12:09Z</time>
      </trkpt>
      <trkpt lat="42.47449" lon="2.52998">
        <ele>1155</ele>
        <time>2017-09-20T08:20:36Z</time>
      </trkpt>
      <trkpt lat="42.47453" lon="2.53">
        <ele>1155</ele>
        <time>2017-09-20T08:21:08Z</time>
      </trkpt>
      <trkpt lat="42.47455" lon="2.5299">
        <ele>1156</ele>
        <time>2017-09-20T08:21:42Z</time>
      </trkpt>
      <trkpt lat="42.47461" lon="2.52983">
        <ele>1157</ele>
        <time>2017-09-20T08:21:55Z</time>
      </trkpt>
      <trkpt lat="42.47466" lon="2.52981">
        <ele>1158</ele>
        <time>2017-09-20T08:22:01Z</time>
      </trkpt>
      <trkpt lat="42.47481" lon="2.52956">
        <ele>1162</ele>
        <time>2017-09-20T08:22:35Z</time>
      </trkpt>
      <trkpt lat="42.47499" lon="2.52945">
        <ele>1167</ele>
        <time>2017-09-20T08:23:10Z</time>
      </trkpt>
      <trkpt lat="42.47506" lon="2.52936">
        <ele>1168</ele>
        <time>2017-09-20T08:23:22Z</time>
      </trkpt>
      <trkpt lat="42.4753" lon="2.52917">
        <ele>1175</ele>
        <time>2017-09-20T08:24:00Z</time>
      </trkpt>
      <trkpt lat="42.47544" lon="2.529">
        <ele>1179</ele>
        <time>2017-09-20T08:24:32Z</time>
      </trkpt>
      <trkpt lat="42.47551" lon="2.52892">
        <ele>1180</ele>
        <time>2017-09-20T08:24:47Z</time>
      </trkpt>
      <trkpt lat="42.47555" lon="2.52881">
        <ele>1183</ele>
        <time>2017-09-20T08:25:05Z</time>
      </trkpt>
      <trkpt lat="42.47562" lon="2.52871">
        <ele>1184</ele>
        <time>2017-09-20T08:25:18Z</time>
      </trkpt>
      <trkpt lat="42.47566" lon="2.52867">
        <ele>1186</ele>
        <time>2017-09-20T08:25:24Z</time>
      </trkpt>
      <trkpt lat="42.47569" lon="2.52854">
        <ele>1188</ele>
        <time>2017-09-20T08:25:41Z</time>
      </trkpt>
      <trkpt lat="42.47572" lon="2.52848">
        <ele>1189</ele>
        <time>2017-09-20T08:25:47Z</time>
      </trkpt>
      <trkpt lat="42.47571" lon="2.52842">
        <ele>1189</ele>
        <time>2017-09-20T08:25:53Z</time>
      </trkpt>
      <trkpt lat="42.47569" lon="2.52839">
        <ele>1192</ele>
        <time>2017-09-20T08:26:31Z</time>
      </trkpt>
      <trkpt lat="42.47565" lon="2.52842">
        <ele>1194</ele>
        <time>2017-09-20T08:26:37Z</time>
      </trkpt>
      <trkpt lat="42.47561" lon="2.52847">
        <ele>1195</ele>
        <time>2017-09-20T08:26:44Z</time>
      </trkpt>
      <trkpt lat="42.47552" lon="2.52852">
        <ele>1199</ele>
        <time>2017-09-20T08:26:58Z</time>
      </trkpt>
      <trkpt lat="42.47544" lon="2.5286">
        <ele>1202</ele>
        <time>2017-09-20T08:27:10Z</time>
      </trkpt>
      <trkpt lat="42.4754" lon="2.52861">
        <ele>1203</ele>
        <time>2017-09-20T08:27:17Z</time>
      </trkpt>
      <trkpt lat="42.47525" lon="2.52859">
        <ele>1206</ele>
        <time>2017-09-20T08:27:44Z</time>
      </trkpt>
      <trkpt lat="42.47516" lon="2.52862">
        <ele>1207</ele>
        <time>2017-09-20T08:27:56Z</time>
      </trkpt>
      <trkpt lat="42.47512" lon="2.52859">
        <ele>1208</ele>
        <time>2017-09-20T08:28:14Z</time>
      </trkpt>
      <trkpt lat="42.4751" lon="2.52854">
        <ele>1208</ele>
        <time>2017-09-20T08:28:45Z</time>
      </trkpt>
      <trkpt lat="42.47515" lon="2.52843">
        <ele>1209</ele>
        <time>2017-09-20T08:28:55Z</time>
      </trkpt>
      <trkpt lat="42.4752" lon="2.52833">
        <ele>1212</ele>
        <time>2017-09-20T08:29:04Z</time>
      </trkpt>
      <trkpt lat="42.47528" lon="2.52825">
        <ele>1214</ele>
        <time>2017-09-20T08:29:19Z</time>
      </trkpt>
      <trkpt lat="42.47539" lon="2.52802">
        <ele>1219</ele>
        <time>2017-09-20T08:29:48Z</time>
      </trkpt>
      <trkpt lat="42.47542" lon="2.52793">
        <ele>1221</ele>
        <time>2017-09-20T08:30:04Z</time>
      </trkpt>
      <trkpt lat="42.47538" lon="2.52781">
        <ele>1223</ele>
        <time>2017-09-20T08:30:21Z</time>
      </trkpt>
      <trkpt lat="42.47529" lon="2.52776">
        <ele>1226</ele>
        <time>2017-09-20T08:30:37Z</time>
      </trkpt>
      <trkpt lat="42.47525" lon="2.52773">
        <ele>1227</ele>
        <time>2017-09-20T08:30:56Z</time>
      </trkpt>
      <trkpt lat="42.47511" lon="2.5278">
        <ele>1231</ele>
        <time>2017-09-20T08:31:21Z</time>
      </trkpt>
      <trkpt lat="42.47506" lon="2.5278">
        <ele>1232</ele>
        <time>2017-09-20T08:31:27Z</time>
      </trkpt>
      <trkpt lat="42.475" lon="2.5278">
        <ele>1233</ele>
        <time>2017-09-20T08:31:42Z</time>
      </trkpt>
      <trkpt lat="42.47495" lon="2.52781">
        <ele>1233</ele>
        <time>2017-09-20T08:31:50Z</time>
      </trkpt>
      <trkpt lat="42.4749" lon="2.5278">
        <ele>1233</ele>
        <time>2017-09-20T08:31:57Z</time>
      </trkpt>
      <trkpt lat="42.47491" lon="2.52775">
        <ele>1235</ele>
        <time>2017-09-20T08:32:45Z</time>
      </trkpt>
      <trkpt lat="42.47481" lon="2.52772">
        <ele>1235</ele>
        <time>2017-09-20T08:33:15Z</time>
      </trkpt>
      <trkpt lat="42.47476" lon="2.52771">
        <ele>1235</ele>
        <time>2017-09-20T08:33:21Z</time>
      </trkpt>
      <trkpt lat="42.47471" lon="2.52772">
        <ele>1236</ele>
        <time>2017-09-20T08:33:27Z</time>
      </trkpt>
      <trkpt lat="42.47465" lon="2.52771">
        <ele>1238</ele>
        <time>2017-09-20T08:33:43Z</time>
      </trkpt>
      <trkpt lat="42.47457" lon="2.52774">
        <ele>1239</ele>
        <time>2017-09-20T08:34:17Z</time>
      </trkpt>
      <trkpt lat="42.47453" lon="2.52776">
        <ele>1240</ele>
        <time>2017-09-20T08:34:25Z</time>
      </trkpt>
      <trkpt lat="42.47443" lon="2.52777">
        <ele>1243</ele>
        <time>2017-09-20T08:34:40Z</time>
      </trkpt>
      <trkpt lat="42.47435" lon="2.52782">
        <ele>1244</ele>
        <time>2017-09-20T08:34:53Z</time>
      </trkpt>
      <trkpt lat="42.47431" lon="2.52786">
        <ele>1245</ele>
        <time>2017-09-20T08:35:01Z</time>
      </trkpt>
      <trkpt lat="42.47426" lon="2.52788">
        <ele>1246</ele>
        <time>2017-09-20T08:35:10Z</time>
      </trkpt>
      <trkpt lat="42.47421" lon="2.52788">
        <ele>1246</ele>
        <time>2017-09-20T08:35:17Z</time>
      </trkpt>
      <trkpt lat="42.47401" lon="2.52792">
        <ele>1249</ele>
        <time>2017-09-20T08:35:43Z</time>
      </trkpt>
      <trkpt lat="42.47397" lon="2.52791">
        <ele>1250</ele>
        <time>2017-09-20T08:35:49Z</time>
      </trkpt>
      <trkpt lat="42.47391" lon="2.52795">
        <ele>1251</ele>
        <time>2017-09-20T08:36:03Z</time>
      </trkpt>
      <trkpt lat="42.47379" lon="2.52794">
        <ele>1254</ele>
        <time>2017-09-20T08:36:31Z</time>
      </trkpt>
      <trkpt lat="42.47366" lon="2.5278">
        <ele>1258</ele>
        <time>2017-09-20T08:37:29Z</time>
      </trkpt>
      <trkpt lat="42.47368" lon="2.52774">
        <ele>1258</ele>
        <time>2017-09-20T08:37:33Z</time>
      </trkpt>
      <trkpt lat="42.47372" lon="2.52771">
        <ele>1259</ele>
        <time>2017-09-20T08:37:37Z</time>
      </trkpt>
      <trkpt lat="42.47382" lon="2.52753">
        <ele>1261</ele>
        <time>2017-09-20T08:38:16Z</time>
      </trkpt>
      <trkpt lat="42.47381" lon="2.52747">
        <ele>1262</ele>
        <time>2017-09-20T08:38:23Z</time>
      </trkpt>
      <trkpt lat="42.47372" lon="2.5273">
        <ele>1265</ele>
        <time>2017-09-20T08:38:54Z</time>
      </trkpt>
      <trkpt lat="42.47368" lon="2.52726">
        <ele>1266</ele>
        <time>2017-09-20T08:39:02Z</time>
      </trkpt>
      <trkpt lat="42.47366" lon="2.52717">
        <ele>1267</ele>
        <time>2017-09-20T08:39:18Z</time>
      </trkpt>
      <trkpt lat="42.47349" lon="2.52686">
        <ele>1270</ele>
        <time>2017-09-20T08:39:51Z</time>
      </trkpt>
      <trkpt lat="42.47336" lon="2.52664">
        <ele>1274</ele>
        <time>2017-09-20T08:40:27Z</time>
      </trkpt>
      <trkpt lat="42.47321" lon="2.52635">
        <ele>1279</ele>
        <time>2017-09-20T08:41:11Z</time>
      </trkpt>
      <trkpt lat="42.47315" lon="2.52624">
        <ele>1280</ele>
        <time>2017-09-20T08:41:18Z</time>
      </trkpt>
      <trkpt lat="42.47312" lon="2.52613">
        <ele>1283</ele>
        <time>2017-09-20T08:42:00Z</time>
      </trkpt>
      <trkpt lat="42.47311" lon="2.52606">
        <ele>1283</ele>
        <time>2017-09-20T08:43:15Z</time>
      </trkpt>
      <trkpt lat="42.47308" lon="2.52601">
        <ele>1284</ele>
        <time>2017-09-20T08:43:21Z</time>
      </trkpt>
      <trkpt lat="42.47306" lon="2.52594">
        <ele>1284</ele>
        <time>2017-09-20T08:43:29Z</time>
      </trkpt>
      <trkpt lat="42.473" lon="2.52585">
        <ele>1286</ele>
        <time>2017-09-20T08:43:45Z</time>
      </trkpt>
      <trkpt lat="42.47284" lon="2.52546">
        <ele>1291</ele>
        <time>2017-09-20T08:44:39Z</time>
      </trkpt>
      <trkpt lat="42.47263" lon="2.52507">
        <ele>1297</ele>
        <time>2017-09-20T08:45:40Z</time>
      </trkpt>
      <trkpt lat="42.47246" lon="2.52482">
        <ele>1301</ele>
        <time>2017-09-20T08:46:20Z</time>
      </trkpt>
      <trkpt lat="42.47239" lon="2.52471">
        <ele>1304</ele>
        <time>2017-09-20T08:46:40Z</time>
      </trkpt>
      <trkpt lat="42.47231" lon="2.52465">
        <ele>1306</ele>
        <time>2017-09-20T08:46:56Z</time>
      </trkpt>
      <trkpt lat="42.47218" lon="2.52437">
        <ele>1310</ele>
        <time>2017-09-20T08:47:35Z</time>
      </trkpt>
      <trkpt lat="42.47212" lon="2.52427">
        <ele>1312</ele>
        <time>2017-09-20T08:47:48Z</time>
      </trkpt>
      <trkpt lat="42.47206" lon="2.52417">
        <ele>1314</ele>
        <time>2017-09-20T08:47:57Z</time>
      </trkpt>
      <trkpt lat="42.47206" lon="2.52411">
        <ele>1316</ele>
        <time>2017-09-20T08:48:10Z</time>
      </trkpt>
      <trkpt lat="42.47202" lon="2.52408">
        <ele>1317</ele>
        <time>2017-09-20T08:48:19Z</time>
      </trkpt>
      <trkpt lat="42.47189" lon="2.52384">
        <ele>1321</ele>
        <time>2017-09-20T08:48:55Z</time>
      </trkpt>
      <trkpt lat="42.47182" lon="2.52375">
        <ele>1322</ele>
        <time>2017-09-20T08:49:06Z</time>
      </trkpt>
      <trkpt lat="42.47164" lon="2.52363">
        <ele>1327</ele>
        <time>2017-09-20T08:49:47Z</time>
      </trkpt>
      <trkpt lat="42.47146" lon="2.52357">
        <ele>1331</ele>
        <time>2017-09-20T08:50:18Z</time>
      </trkpt>
      <trkpt lat="42.47134" lon="2.52344">
        <ele>1335</ele>
        <time>2017-09-20T08:50:50Z</time>
      </trkpt>
      <trkpt lat="42.47127" lon="2.52337">
        <ele>1337</ele>
        <time>2017-09-20T08:51:00Z</time>
      </trkpt>
      <trkpt lat="42.47121" lon="2.52335">
        <ele>1338</ele>
        <time>2017-09-20T08:51:09Z</time>
      </trkpt>
      <trkpt lat="42.47116" lon="2.52331">
        <ele>1339</ele>
        <time>2017-09-20T08:51:24Z</time>
      </trkpt>
      <trkpt lat="42.47104" lon="2.52319">
        <ele>1343</ele>
        <time>2017-09-20T08:51:52Z</time>
      </trkpt>
      <trkpt lat="42.47097" lon="2.52317">
        <ele>1345</ele>
        <time>2017-09-20T08:52:09Z</time>
      </trkpt>
      <trkpt lat="42.47088" lon="2.52307">
        <ele>1347</ele>
        <time>2017-09-20T08:52:30Z</time>
      </trkpt>
      <trkpt lat="42.47079" lon="2.52303">
        <ele>1348</ele>
        <time>2017-09-20T08:52:43Z</time>
      </trkpt>
      <trkpt lat="42.47064" lon="2.52288">
        <ele>1351</ele>
        <time>2017-09-20T08:53:04Z</time>
      </trkpt>
      <trkpt lat="42.47053" lon="2.52275">
        <ele>1356</ele>
        <time>2017-09-20T08:53:45Z</time>
      </trkpt>
      <trkpt lat="42.47047" lon="2.52264">
        <ele>1357</ele>
        <time>2017-09-20T08:54:00Z</time>
      </trkpt>
      <trkpt lat="42.47039" lon="2.52256">
        <ele>1360</ele>
        <time>2017-09-20T08:54:17Z</time>
      </trkpt>
      <trkpt lat="42.47024" lon="2.5223">
        <ele>1364</ele>
        <time>2017-09-20T08:54:55Z</time>
      </trkpt>
      <trkpt lat="42.47015" lon="2.52215">
        <ele>1368</ele>
        <time>2017-09-20T08:56:29Z</time>
      </trkpt>
      <trkpt lat="42.47013" lon="2.52209">
        <ele>1370</ele>
        <time>2017-09-20T08:56:36Z</time>
      </trkpt>
      <trkpt lat="42.47011" lon="2.52196">
        <ele>1371</ele>
        <time>2017-09-20T08:56:51Z</time>
      </trkpt>
      <trkpt lat="42.47013" lon="2.52189">
        <ele>1372</ele>
        <time>2017-09-20T08:57:00Z</time>
      </trkpt>
      <trkpt lat="42.47004" lon="2.52173">
        <ele>1375</ele>
        <time>2017-09-20T08:57:18Z</time>
      </trkpt>
      <trkpt lat="42.47" lon="2.52147">
        <ele>1378</ele>
        <time>2017-09-20T08:57:48Z</time>
      </trkpt>
      <trkpt lat="42.46998" lon="2.52141">
        <ele>1379</ele>
        <time>2017-09-20T08:57:56Z</time>
      </trkpt>
      <trkpt lat="42.46995" lon="2.52129">
        <ele>1381</ele>
        <time>2017-09-20T08:58:08Z</time>
      </trkpt>
      <trkpt lat="42.46995" lon="2.52121">
        <ele>1381</ele>
        <time>2017-09-20T08:58:15Z</time>
      </trkpt>
      <trkpt lat="42.46992" lon="2.52108">
        <ele>1382</ele>
        <time>2017-09-20T08:58:26Z</time>
      </trkpt>
      <trkpt lat="42.46985" lon="2.521">
        <ele>1383</ele>
        <time>2017-09-20T08:58:38Z</time>
      </trkpt>
      <trkpt lat="42.46987" lon="2.52068">
        <ele>1388</ele>
        <time>2017-09-20T08:59:15Z</time>
      </trkpt>
      <trkpt lat="42.46985" lon="2.52061">
        <ele>1389</ele>
        <time>2017-09-20T08:59:24Z</time>
      </trkpt>
      <trkpt lat="42.4698" lon="2.5203">
        <ele>1393</ele>
        <time>2017-09-20T09:00:08Z</time>
      </trkpt>
      <trkpt lat="42.46976" lon="2.52018">
        <ele>1395</ele>
        <time>2017-09-20T09:00:23Z</time>
      </trkpt>
      <trkpt lat="42.46972" lon="2.51991">
        <ele>1398</ele>
        <time>2017-09-20T09:00:51Z</time>
      </trkpt>
      <trkpt lat="42.4697" lon="2.51985">
        <ele>1398</ele>
        <time>2017-09-20T09:00:57Z</time>
      </trkpt>
      <trkpt lat="42.46969" lon="2.51979">
        <ele>1399</ele>
        <time>2017-09-20T09:01:04Z</time>
      </trkpt>
      <trkpt lat="42.46972" lon="2.51967">
        <ele>1401</ele>
        <time>2017-09-20T09:01:19Z</time>
      </trkpt>
      <trkpt lat="42.4697" lon="2.51961">
        <ele>1401</ele>
        <time>2017-09-20T09:01:26Z</time>
      </trkpt>
      <trkpt lat="42.46966" lon="2.51958">
        <ele>1402</ele>
        <time>2017-09-20T09:01:30Z</time>
      </trkpt>
      <trkpt lat="42.46966" lon="2.51951">
        <ele>1403</ele>
        <time>2017-09-20T09:01:37Z</time>
      </trkpt>
      <trkpt lat="42.46965" lon="2.51944">
        <ele>1404</ele>
        <time>2017-09-20T09:01:45Z</time>
      </trkpt>
      <trkpt lat="42.46965" lon="2.51938">
        <ele>1404</ele>
        <time>2017-09-20T09:01:52Z</time>
      </trkpt>
      <trkpt lat="42.46966" lon="2.51924">
        <ele>1405</ele>
        <time>2017-09-20T09:02:05Z</time>
      </trkpt>
      <trkpt lat="42.46969" lon="2.5192">
        <ele>1405</ele>
        <time>2017-09-20T09:02:10Z</time>
      </trkpt>
      <trkpt lat="42.4697" lon="2.51914">
        <ele>1406</ele>
        <time>2017-09-20T09:02:15Z</time>
      </trkpt>
      <trkpt lat="42.4697" lon="2.51908">
        <ele>1406</ele>
        <time>2017-09-20T09:02:21Z</time>
      </trkpt>
      <trkpt lat="42.46967" lon="2.51902">
        <ele>1407</ele>
        <time>2017-09-20T09:02:30Z</time>
      </trkpt>
      <trkpt lat="42.46964" lon="2.51882">
        <ele>1410</ele>
        <time>2017-09-20T09:02:57Z</time>
      </trkpt>
      <trkpt lat="42.46966" lon="2.51877">
        <ele>1410</ele>
        <time>2017-09-20T09:03:05Z</time>
      </trkpt>
      <trkpt lat="42.46967" lon="2.5187">
        <ele>1410</ele>
        <time>2017-09-20T09:03:12Z</time>
      </trkpt>
      <trkpt lat="42.46967" lon="2.51863">
        <ele>1411</ele>
        <time>2017-09-20T09:03:19Z</time>
      </trkpt>
      <trkpt lat="42.46961" lon="2.51845">
        <ele>1413</ele>
        <time>2017-09-20T09:03:38Z</time>
      </trkpt>
      <trkpt lat="42.46958" lon="2.5184">
        <ele>1413</ele>
        <time>2017-09-20T09:03:46Z</time>
      </trkpt>
      <trkpt lat="42.46962" lon="2.51829">
        <ele>1414</ele>
        <time>2017-09-20T09:04:03Z</time>
      </trkpt>
      <trkpt lat="42.46961" lon="2.51823">
        <ele>1415</ele>
        <time>2017-09-20T09:04:10Z</time>
      </trkpt>
      <trkpt lat="42.46959" lon="2.51817">
        <ele>1416</ele>
        <time>2017-09-20T09:04:18Z</time>
      </trkpt>
      <trkpt lat="42.46951" lon="2.51801">
        <ele>1416</ele>
        <time>2017-09-20T09:04:43Z</time>
      </trkpt>
      <trkpt lat="42.46948" lon="2.51797">
        <ele>1416</ele>
        <time>2017-09-20T09:04:50Z</time>
      </trkpt>
      <trkpt lat="42.46943" lon="2.5178">
        <ele>1416</ele>
        <time>2017-09-20T09:05:10Z</time>
      </trkpt>
      <trkpt lat="42.46938" lon="2.51777">
        <ele>1417</ele>
        <time>2017-09-20T09:05:18Z</time>
      </trkpt>
      <trkpt lat="42.46938" lon="2.51761">
        <ele>1417</ele>
        <time>2017-09-20T09:05:36Z</time>
      </trkpt>
      <trkpt lat="42.46938" lon="2.51754">
        <ele>1417</ele>
        <time>2017-09-20T09:05:42Z</time>
      </trkpt>
      <trkpt lat="42.4694" lon="2.51749">
        <ele>1417</ele>
        <time>2017-09-20T09:05:48Z</time>
      </trkpt>
      <trkpt lat="42.46944" lon="2.51711">
        <ele>1421</ele>
        <time>2017-09-20T09:06:20Z</time>
      </trkpt>
      <trkpt lat="42.46946" lon="2.51705">
        <ele>1422</ele>
        <time>2017-09-20T09:06:26Z</time>
      </trkpt>
      <trkpt lat="42.46949" lon="2.51672">
        <ele>1425</ele>
        <time>2017-09-20T09:07:00Z</time>
      </trkpt>
      <trkpt lat="42.46953" lon="2.51653">
        <ele>1427</ele>
        <time>2017-09-20T09:07:20Z</time>
      </trkpt>
      <trkpt lat="42.46949" lon="2.51642">
        <ele>1429</ele>
        <time>2017-09-20T09:07:38Z</time>
      </trkpt>
      <trkpt lat="42.46947" lon="2.51636">
        <ele>1429</ele>
        <time>2017-09-20T09:07:44Z</time>
      </trkpt>
      <trkpt lat="42.46948" lon="2.5163">
        <ele>1430</ele>
        <time>2017-09-20T09:07:49Z</time>
      </trkpt>
      <trkpt lat="42.46951" lon="2.51625">
        <ele>1430</ele>
        <time>2017-09-20T09:07:55Z</time>
      </trkpt>
      <trkpt lat="42.46956" lon="2.51621">
        <ele>1430</ele>
        <time>2017-09-20T09:07:59Z</time>
      </trkpt>
      <trkpt lat="42.46957" lon="2.51608">
        <ele>1433</ele>
        <time>2017-09-20T09:08:19Z</time>
      </trkpt>
      <trkpt lat="42.46955" lon="2.51603">
        <ele>1433</ele>
        <time>2017-09-20T09:08:23Z</time>
      </trkpt>
      <trkpt lat="42.46946" lon="2.51586">
        <ele>1436</ele>
        <time>2017-09-20T09:08:50Z</time>
      </trkpt>
      <trkpt lat="42.46949" lon="2.51581">
        <ele>1436</ele>
        <time>2017-09-20T09:08:59Z</time>
      </trkpt>
      <trkpt lat="42.46951" lon="2.51572">
        <ele>1437</ele>
        <time>2017-09-20T09:09:11Z</time>
      </trkpt>
      <trkpt lat="42.4695" lon="2.51566">
        <ele>1438</ele>
        <time>2017-09-20T09:09:20Z</time>
      </trkpt>
      <trkpt lat="42.46946" lon="2.51563">
        <ele>1438</ele>
        <time>2017-09-20T09:09:27Z</time>
      </trkpt>
      <trkpt lat="42.46946" lon="2.51554">
        <ele>1438</ele>
        <time>2017-09-20T09:09:37Z</time>
      </trkpt>
      <trkpt lat="42.46948" lon="2.51547">
        <ele>1439</ele>
        <time>2017-09-20T09:09:42Z</time>
      </trkpt>
      <trkpt lat="42.4695" lon="2.51535">
        <ele>1439</ele>
        <time>2017-09-20T09:09:51Z</time>
      </trkpt>
      <trkpt lat="42.46955" lon="2.51524">
        <ele>1440</ele>
        <time>2017-09-20T09:10:03Z</time>
      </trkpt>
      <trkpt lat="42.46958" lon="2.51512">
        <ele>1441</ele>
        <time>2017-09-20T09:10:15Z</time>
      </trkpt>
      <trkpt lat="42.46958" lon="2.51499">
        <ele>1442</ele>
        <time>2017-09-20T09:10:30Z</time>
      </trkpt>
      <trkpt lat="42.46957" lon="2.51495">
        <ele>1447</ele>
        <time>2017-09-20T09:11:15Z</time>
      </trkpt>
      <trkpt lat="42.46954" lon="2.51501">
        <ele>1448</ele>
        <time>2017-09-20T09:11:22Z</time>
      </trkpt>
      <trkpt lat="42.46945" lon="2.51523">
        <ele>1451</ele>
        <time>2017-09-20T09:11:52Z</time>
      </trkpt>
      <trkpt lat="42.46941" lon="2.51527">
        <ele>1452</ele>
        <time>2017-09-20T09:11:57Z</time>
      </trkpt>
      <trkpt lat="42.46933" lon="2.51531">
        <ele>1453</ele>
        <time>2017-09-20T09:12:11Z</time>
      </trkpt>
      <trkpt lat="42.46926" lon="2.51548">
        <ele>1453</ele>
        <time>2017-09-20T09:12:31Z</time>
      </trkpt>
      <trkpt lat="42.46925" lon="2.51556">
        <ele>1453</ele>
        <time>2017-09-20T09:12:37Z</time>
      </trkpt>
      <trkpt lat="42.46931" lon="2.51565">
        <ele>1454</ele>
        <time>2017-09-20T09:12:55Z</time>
      </trkpt>
      <trkpt lat="42.4693" lon="2.51572">
        <ele>1454</ele>
        <time>2017-09-20T09:13:03Z</time>
      </trkpt>
      <trkpt lat="42.46931" lon="2.51582">
        <ele>1455</ele>
        <time>2017-09-20T09:13:16Z</time>
      </trkpt>
      <trkpt lat="42.46927" lon="2.51594">
        <ele>1458</ele>
        <time>2017-09-20T09:13:40Z</time>
      </trkpt>
      <trkpt lat="42.46919" lon="2.51602">
        <ele>1459</ele>
        <time>2017-09-20T09:13:52Z</time>
      </trkpt>
      <trkpt lat="42.46916" lon="2.51608">
        <ele>1459</ele>
        <time>2017-09-20T09:13:59Z</time>
      </trkpt>
      <trkpt lat="42.46914" lon="2.51614">
        <ele>1459</ele>
        <time>2017-09-20T09:14:04Z</time>
      </trkpt>
      <trkpt lat="42.46911" lon="2.51619">
        <ele>1460</ele>
        <time>2017-09-20T09:14:08Z</time>
      </trkpt>
      <trkpt lat="42.46908" lon="2.51623">
        <ele>1460</ele>
        <time>2017-09-20T09:14:12Z</time>
      </trkpt>
      <trkpt lat="42.46908" lon="2.51629">
        <ele>1460</ele>
        <time>2017-09-20T09:14:18Z</time>
      </trkpt>
      <trkpt lat="42.4691" lon="2.51635">
        <ele>1461</ele>
        <time>2017-09-20T09:14:23Z</time>
      </trkpt>
      <trkpt lat="42.46909" lon="2.51642">
        <ele>1461</ele>
        <time>2017-09-20T09:14:29Z</time>
      </trkpt>
      <trkpt lat="42.46906" lon="2.51652">
        <ele>1461</ele>
        <time>2017-09-20T09:14:50Z</time>
      </trkpt>
      <trkpt lat="42.46902" lon="2.51654">
        <ele>1462</ele>
        <time>2017-09-20T09:14:57Z</time>
      </trkpt>
      <trkpt lat="42.46902" lon="2.51661">
        <ele>1462</ele>
        <time>2017-09-20T09:15:04Z</time>
      </trkpt>
      <trkpt lat="42.46903" lon="2.51667">
        <ele>1462</ele>
        <time>2017-09-20T09:15:10Z</time>
      </trkpt>
      <trkpt lat="42.46901" lon="2.51673">
        <ele>1463</ele>
        <time>2017-09-20T09:15:16Z</time>
      </trkpt>
      <trkpt lat="42.46901" lon="2.5168">
        <ele>1465</ele>
        <time>2017-09-20T09:15:22Z</time>
      </trkpt>
      <trkpt lat="42.46899" lon="2.51686">
        <ele>1466</ele>
        <time>2017-09-20T09:15:29Z</time>
      </trkpt>
      <trkpt lat="42.46887" lon="2.51705">
        <ele>1469</ele>
        <time>2017-09-20T09:15:51Z</time>
      </trkpt>
      <trkpt lat="42.46883" lon="2.51708">
        <ele>1470</ele>
        <time>2017-09-20T09:15:57Z</time>
      </trkpt>
      <trkpt lat="42.4688" lon="2.51713">
        <ele>1471</ele>
        <time>2017-09-20T09:16:03Z</time>
      </trkpt>
      <trkpt lat="42.46877" lon="2.51726">
        <ele>1472</ele>
        <time>2017-09-20T09:16:16Z</time>
      </trkpt>
      <trkpt lat="42.46874" lon="2.5173">
        <ele>1473</ele>
        <time>2017-09-20T09:16:23Z</time>
      </trkpt>
      <trkpt lat="42.46865" lon="2.51736">
        <ele>1475</ele>
        <time>2017-09-20T09:16:36Z</time>
      </trkpt>
      <trkpt lat="42.46865" lon="2.51749">
        <ele>1475</ele>
        <time>2017-09-20T09:16:54Z</time>
      </trkpt>
      <trkpt lat="42.46865" lon="2.51755">
        <ele>1475</ele>
        <time>2017-09-20T09:17:00Z</time>
      </trkpt>
      <trkpt lat="42.46864" lon="2.51768">
        <ele>1476</ele>
        <time>2017-09-20T09:17:16Z</time>
      </trkpt>
      <trkpt lat="42.46864" lon="2.51775">
        <ele>1476</ele>
        <time>2017-09-20T09:17:21Z</time>
      </trkpt>
      <trkpt lat="42.46865" lon="2.51781">
        <ele>1476</ele>
        <time>2017-09-20T09:17:25Z</time>
      </trkpt>
      <trkpt lat="42.46869" lon="2.51786">
        <ele>1476</ele>
        <time>2017-09-20T09:17:33Z</time>
      </trkpt>
      <trkpt lat="42.46868" lon="2.51793">
        <ele>1477</ele>
        <time>2017-09-20T09:17:45Z</time>
      </trkpt>
      <trkpt lat="42.46858" lon="2.51817">
        <ele>1481</ele>
        <time>2017-09-20T09:18:28Z</time>
      </trkpt>
      <trkpt lat="42.46854" lon="2.51834">
        <ele>1483</ele>
        <time>2017-09-20T09:19:03Z</time>
      </trkpt>
      <trkpt lat="42.46853" lon="2.5184">
        <ele>1484</ele>
        <time>2017-09-20T09:19:09Z</time>
      </trkpt>
      <trkpt lat="42.46851" lon="2.51846">
        <ele>1485</ele>
        <time>2017-09-20T09:19:16Z</time>
      </trkpt>
      <trkpt lat="42.46846" lon="2.5185">
        <ele>1486</ele>
        <time>2017-09-20T09:19:38Z</time>
      </trkpt>
      <trkpt lat="42.46842" lon="2.51854">
        <ele>1487</ele>
        <time>2017-09-20T09:19:45Z</time>
      </trkpt>
      <trkpt lat="42.46842" lon="2.51861">
        <ele>1488</ele>
        <time>2017-09-20T09:19:53Z</time>
      </trkpt>
      <trkpt lat="42.4684" lon="2.51867">
        <ele>1489</ele>
        <time>2017-09-20T09:19:59Z</time>
      </trkpt>
      <trkpt lat="42.46836" lon="2.51872">
        <ele>1489</ele>
        <time>2017-09-20T09:20:05Z</time>
      </trkpt>
      <trkpt lat="42.46836" lon="2.51879">
        <ele>1490</ele>
        <time>2017-09-20T09:20:10Z</time>
      </trkpt>
      <trkpt lat="42.46835" lon="2.51885">
        <ele>1490</ele>
        <time>2017-09-20T09:20:15Z</time>
      </trkpt>
      <trkpt lat="42.46834" lon="2.51894">
        <ele>1491</ele>
        <time>2017-09-20T09:20:59Z</time>
      </trkpt>
      <trkpt lat="42.46831" lon="2.51899">
        <ele>1491</ele>
        <time>2017-09-20T09:21:05Z</time>
      </trkpt>
      <trkpt lat="42.4683" lon="2.51906">
        <ele>1493</ele>
        <time>2017-09-20T09:21:31Z</time>
      </trkpt>
      <trkpt lat="42.46829" lon="2.51912">
        <ele>1494</ele>
        <time>2017-09-20T09:21:43Z</time>
      </trkpt>
      <trkpt lat="42.46824" lon="2.51924">
        <ele>1496</ele>
        <time>2017-09-20T09:21:52Z</time>
      </trkpt>
      <trkpt lat="42.46818" lon="2.5192">
        <ele>1498</ele>
        <time>2017-09-20T09:22:07Z</time>
      </trkpt>
      <trkpt lat="42.46818" lon="2.51901">
        <ele>1501</ele>
        <time>2017-09-20T09:22:33Z</time>
      </trkpt>
      <trkpt lat="42.46814" lon="2.51868">
        <ele>1507</ele>
        <time>2017-09-20T09:23:03Z</time>
      </trkpt>
      <trkpt lat="42.46812" lon="2.51862">
        <ele>1508</ele>
        <time>2017-09-20T09:23:07Z</time>
      </trkpt>
      <trkpt lat="42.46816" lon="2.51834">
        <ele>1511</ele>
        <time>2017-09-20T09:23:29Z</time>
      </trkpt>
      <trkpt lat="42.46809" lon="2.51802">
        <ele>1515</ele>
        <time>2017-09-20T09:23:58Z</time>
      </trkpt>
      <trkpt lat="42.46806" lon="2.51794">
        <ele>1516</ele>
        <time>2017-09-20T09:24:18Z</time>
      </trkpt>
      <trkpt lat="42.46803" lon="2.51786">
        <ele>1516</ele>
        <time>2017-09-20T09:26:05Z</time>
      </trkpt>
      <trkpt lat="42.46804" lon="2.5178">
        <ele>1517</ele>
        <time>2017-09-20T09:34:45Z</time>
      </trkpt>
      <trkpt lat="42.46805" lon="2.5177">
        <ele>1520</ele>
        <time>2017-09-20T09:39:15Z</time>
      </trkpt>
      <trkpt lat="42.46806" lon="2.51764">
        <ele>1521</ele>
        <time>2017-09-20T09:39:23Z</time>
      </trkpt>
      <trkpt lat="42.46804" lon="2.51757">
        <ele>1522</ele>
        <time>2017-09-20T09:39:30Z</time>
      </trkpt>
      <trkpt lat="42.46794" lon="2.51733">
        <ele>1525</ele>
        <time>2017-09-20T09:40:01Z</time>
      </trkpt>
      <trkpt lat="42.46794" lon="2.51726">
        <ele>1527</ele>
        <time>2017-09-20T09:40:09Z</time>
      </trkpt>
      <trkpt lat="42.46785" lon="2.51696">
        <ele>1531</ele>
        <time>2017-09-20T09:40:40Z</time>
      </trkpt>
      <trkpt lat="42.46784" lon="2.51689">
        <ele>1531</ele>
        <time>2017-09-20T09:40:47Z</time>
      </trkpt>
      <trkpt lat="42.46787" lon="2.51683">
        <ele>1532</ele>
        <time>2017-09-20T09:40:53Z</time>
      </trkpt>
      <trkpt lat="42.46792" lon="2.51665">
        <ele>1535</ele>
        <time>2017-09-20T09:41:17Z</time>
      </trkpt>
      <trkpt lat="42.46792" lon="2.51638">
        <ele>1539</ele>
        <time>2017-09-20T09:41:45Z</time>
      </trkpt>
      <trkpt lat="42.4679" lon="2.51631">
        <ele>1539</ele>
        <time>2017-09-20T09:41:51Z</time>
      </trkpt>
      <trkpt lat="42.46786" lon="2.5162">
        <ele>1541</ele>
        <time>2017-09-20T09:42:06Z</time>
      </trkpt>
      <trkpt lat="42.46792" lon="2.51611">
        <ele>1543</ele>
        <time>2017-09-20T09:42:20Z</time>
      </trkpt>
      <trkpt lat="42.46793" lon="2.51605">
        <ele>1544</ele>
        <time>2017-09-20T09:42:26Z</time>
      </trkpt>
      <trkpt lat="42.46793" lon="2.51598">
        <ele>1544</ele>
        <time>2017-09-20T09:42:33Z</time>
      </trkpt>
      <trkpt lat="42.46795" lon="2.51592">
        <ele>1545</ele>
        <time>2017-09-20T09:42:41Z</time>
      </trkpt>
      <trkpt lat="42.46795" lon="2.51586">
        <ele>1546</ele>
        <time>2017-09-20T09:42:48Z</time>
      </trkpt>
      <trkpt lat="42.46793" lon="2.5158">
        <ele>1547</ele>
        <time>2017-09-20T09:42:54Z</time>
      </trkpt>
      <trkpt lat="42.46793" lon="2.51567">
        <ele>1549</ele>
        <time>2017-09-20T09:43:11Z</time>
      </trkpt>
      <trkpt lat="42.46794" lon="2.51561">
        <ele>1549</ele>
        <time>2017-09-20T09:43:19Z</time>
      </trkpt>
      <trkpt lat="42.46794" lon="2.51554">
        <ele>1550</ele>
        <time>2017-09-20T09:43:26Z</time>
      </trkpt>
      <trkpt lat="42.46791" lon="2.51548">
        <ele>1551</ele>
        <time>2017-09-20T09:43:32Z</time>
      </trkpt>
      <trkpt lat="42.4679" lon="2.5154">
        <ele>1552</ele>
        <time>2017-09-20T09:43:39Z</time>
      </trkpt>
      <trkpt lat="42.46791" lon="2.51527">
        <ele>1554</ele>
        <time>2017-09-20T09:43:57Z</time>
      </trkpt>
      <trkpt lat="42.46793" lon="2.51521">
        <ele>1555</ele>
        <time>2017-09-20T09:44:03Z</time>
      </trkpt>
      <trkpt lat="42.46796" lon="2.51516">
        <ele>1556</ele>
        <time>2017-09-20T09:44:11Z</time>
      </trkpt>
      <trkpt lat="42.46796" lon="2.51503">
        <ele>1557</ele>
        <time>2017-09-20T09:44:25Z</time>
      </trkpt>
      <trkpt lat="42.46795" lon="2.51497">
        <ele>1558</ele>
        <time>2017-09-20T09:44:34Z</time>
      </trkpt>
      <trkpt lat="42.46796" lon="2.51483">
        <ele>1559</ele>
        <time>2017-09-20T09:44:53Z</time>
      </trkpt>
      <trkpt lat="42.46795" lon="2.51477">
        <ele>1559</ele>
        <time>2017-09-20T09:44:59Z</time>
      </trkpt>
      <trkpt lat="42.46795" lon="2.5147">
        <ele>1560</ele>
        <time>2017-09-20T09:45:05Z</time>
      </trkpt>
      <trkpt lat="42.46794" lon="2.51464">
        <ele>1560</ele>
        <time>2017-09-20T09:45:10Z</time>
      </trkpt>
      <trkpt lat="42.46792" lon="2.51457">
        <ele>1561</ele>
        <time>2017-09-20T09:45:18Z</time>
      </trkpt>
      <trkpt lat="42.46782" lon="2.51443">
        <ele>1562</ele>
        <time>2017-09-20T09:45:34Z</time>
      </trkpt>
      <trkpt lat="42.4678" lon="2.51437">
        <ele>1563</ele>
        <time>2017-09-20T09:45:41Z</time>
      </trkpt>
      <trkpt lat="42.46774" lon="2.5143">
        <ele>1565</ele>
        <time>2017-09-20T09:45:59Z</time>
      </trkpt>
      <trkpt lat="42.4677" lon="2.51426">
        <ele>1565</ele>
        <time>2017-09-20T09:46:06Z</time>
      </trkpt>
      <trkpt lat="42.46764" lon="2.51414">
        <ele>1567</ele>
        <time>2017-09-20T09:46:20Z</time>
      </trkpt>
      <trkpt lat="42.4676" lon="2.5141">
        <ele>1568</ele>
        <time>2017-09-20T09:46:28Z</time>
      </trkpt>
      <trkpt lat="42.46751" lon="2.51403">
        <ele>1570</ele>
        <time>2017-09-20T09:46:42Z</time>
      </trkpt>
      <trkpt lat="42.46744" lon="2.51393">
        <ele>1572</ele>
        <time>2017-09-20T09:46:58Z</time>
      </trkpt>
      <trkpt lat="42.46739" lon="2.51391">
        <ele>1573</ele>
        <time>2017-09-20T09:47:05Z</time>
      </trkpt>
      <trkpt lat="42.46739" lon="2.51383">
        <ele>1574</ele>
        <time>2017-09-20T09:47:18Z</time>
      </trkpt>
      <trkpt lat="42.46735" lon="2.5138">
        <ele>1575</ele>
        <time>2017-09-20T09:47:24Z</time>
      </trkpt>
      <trkpt lat="42.46722" lon="2.5136">
        <ele>1578</ele>
        <time>2017-09-20T09:47:52Z</time>
      </trkpt>
      <trkpt lat="42.46718" lon="2.51358">
        <ele>1579</ele>
        <time>2017-09-20T09:48:03Z</time>
      </trkpt>
      <trkpt lat="42.4671" lon="2.51345">
        <ele>1581</ele>
        <time>2017-09-20T09:48:22Z</time>
      </trkpt>
      <trkpt lat="42.46702" lon="2.51337">
        <ele>1583</ele>
        <time>2017-09-20T09:48:37Z</time>
      </trkpt>
      <trkpt lat="42.46697" lon="2.51325">
        <ele>1585</ele>
        <time>2017-09-20T09:48:52Z</time>
      </trkpt>
      <trkpt lat="42.46687" lon="2.51314">
        <ele>1587</ele>
        <time>2017-09-20T09:49:12Z</time>
      </trkpt>
      <trkpt lat="42.46671" lon="2.51308">
        <ele>1590</ele>
        <time>2017-09-20T09:49:38Z</time>
      </trkpt>
      <trkpt lat="42.4666" lon="2.51308">
        <ele>1592</ele>
        <time>2017-09-20T09:49:59Z</time>
      </trkpt>
      <trkpt lat="42.46655" lon="2.51305">
        <ele>1593</ele>
        <time>2017-09-20T09:50:06Z</time>
      </trkpt>
      <trkpt lat="42.46646" lon="2.51291">
        <ele>1596</ele>
        <time>2017-09-20T09:50:28Z</time>
      </trkpt>
      <trkpt lat="42.46641" lon="2.51286">
        <ele>1597</ele>
        <time>2017-09-20T09:50:41Z</time>
      </trkpt>
      <trkpt lat="42.46636" lon="2.51283">
        <ele>1598</ele>
        <time>2017-09-20T09:50:48Z</time>
      </trkpt>
      <trkpt lat="42.46628" lon="2.51277">
        <ele>1600</ele>
        <time>2017-09-20T09:51:01Z</time>
      </trkpt>
      <trkpt lat="42.46609" lon="2.51274">
        <ele>1603</ele>
        <time>2017-09-20T09:51:29Z</time>
      </trkpt>
      <trkpt lat="42.46606" lon="2.51268">
        <ele>1604</ele>
        <time>2017-09-20T09:51:45Z</time>
      </trkpt>
      <trkpt lat="42.46601" lon="2.51265">
        <ele>1604</ele>
        <time>2017-09-20T09:52:00Z</time>
      </trkpt>
      <trkpt lat="42.46597" lon="2.51262">
        <ele>1605</ele>
        <time>2017-09-20T09:52:11Z</time>
      </trkpt>
      <trkpt lat="42.46593" lon="2.51256">
        <ele>1607</ele>
        <time>2017-09-20T09:52:23Z</time>
      </trkpt>
      <trkpt lat="42.46585" lon="2.51248">
        <ele>1610</ele>
        <time>2017-09-20T09:52:37Z</time>
      </trkpt>
      <trkpt lat="42.46579" lon="2.51233">
        <ele>1613</ele>
        <time>2017-09-20T09:53:00Z</time>
      </trkpt>
      <trkpt lat="42.46581" lon="2.51214">
        <ele>1615</ele>
        <time>2017-09-20T09:53:19Z</time>
      </trkpt>
      <trkpt lat="42.46583" lon="2.51207">
        <ele>1616</ele>
        <time>2017-09-20T09:53:24Z</time>
      </trkpt>
      <trkpt lat="42.46582" lon="2.51194">
        <ele>1618</ele>
        <time>2017-09-20T09:53:41Z</time>
      </trkpt>
      <trkpt lat="42.46583" lon="2.51181">
        <ele>1620</ele>
        <time>2017-09-20T09:54:05Z</time>
      </trkpt>
      <trkpt lat="42.46575" lon="2.51185">
        <ele>1621</ele>
        <time>2017-09-20T09:54:23Z</time>
      </trkpt>
      <trkpt lat="42.46571" lon="2.51186">
        <ele>1621</ele>
        <time>2017-09-20T09:54:32Z</time>
      </trkpt>
      <trkpt lat="42.46566" lon="2.51189">
        <ele>1621</ele>
        <time>2017-09-20T09:54:40Z</time>
      </trkpt>
      <trkpt lat="42.46562" lon="2.51192">
        <ele>1621</ele>
        <time>2017-09-20T09:54:46Z</time>
      </trkpt>
      <trkpt lat="42.4656" lon="2.51197">
        <ele>1621</ele>
        <time>2017-09-20T09:54:53Z</time>
      </trkpt>
      <trkpt lat="42.4655" lon="2.51201">
        <ele>1622</ele>
        <time>2017-09-20T09:55:06Z</time>
      </trkpt>
      <trkpt lat="42.46546" lon="2.51204">
        <ele>1623</ele>
        <time>2017-09-20T09:55:12Z</time>
      </trkpt>
      <trkpt lat="42.46535" lon="2.51216">
        <ele>1625</ele>
        <time>2017-09-20T09:55:34Z</time>
      </trkpt>
      <trkpt lat="42.46526" lon="2.51222">
        <ele>1627</ele>
        <time>2017-09-20T09:55:53Z</time>
      </trkpt>
      <trkpt lat="42.46522" lon="2.51224">
        <ele>1628</ele>
        <time>2017-09-20T09:56:00Z</time>
      </trkpt>
      <trkpt lat="42.46518" lon="2.51228">
        <ele>1629</ele>
        <time>2017-09-20T09:56:07Z</time>
      </trkpt>
      <trkpt lat="42.46514" lon="2.51229">
        <ele>1630</ele>
        <time>2017-09-20T09:56:13Z</time>
      </trkpt>
      <trkpt lat="42.46504" lon="2.5123">
        <ele>1631</ele>
        <time>2017-09-20T09:56:28Z</time>
      </trkpt>
      <trkpt lat="42.46499" lon="2.51233">
        <ele>1633</ele>
        <time>2017-09-20T09:56:44Z</time>
      </trkpt>
      <trkpt lat="42.46493" lon="2.51243">
        <ele>1635</ele>
        <time>2017-09-20T09:56:58Z</time>
      </trkpt>
      <trkpt lat="42.46492" lon="2.51249">
        <ele>1636</ele>
        <time>2017-09-20T09:57:06Z</time>
      </trkpt>
      <trkpt lat="42.46495" lon="2.51255">
        <ele>1636</ele>
        <time>2017-09-20T09:57:13Z</time>
      </trkpt>
      <trkpt lat="42.46482" lon="2.51266">
        <ele>1638</ele>
        <time>2017-09-20T09:57:29Z</time>
      </trkpt>
      <trkpt lat="42.46472" lon="2.51285">
        <ele>1641</ele>
        <time>2017-09-20T09:57:56Z</time>
      </trkpt>
      <trkpt lat="42.46468" lon="2.51288">
        <ele>1642</ele>
        <time>2017-09-20T09:58:02Z</time>
      </trkpt>
      <trkpt lat="42.46464" lon="2.51291">
        <ele>1643</ele>
        <time>2017-09-20T09:58:10Z</time>
      </trkpt>
      <trkpt lat="42.4646" lon="2.51295">
        <ele>1644</ele>
        <time>2017-09-20T09:58:17Z</time>
      </trkpt>
      <trkpt lat="42.46458" lon="2.513">
        <ele>1644</ele>
        <time>2017-09-20T09:58:22Z</time>
      </trkpt>
      <trkpt lat="42.46456" lon="2.51306">
        <ele>1645</ele>
        <time>2017-09-20T09:58:28Z</time>
      </trkpt>
      <trkpt lat="42.46451" lon="2.51314">
        <ele>1647</ele>
        <time>2017-09-20T09:58:43Z</time>
      </trkpt>
      <trkpt lat="42.46438" lon="2.51323">
        <ele>1650</ele>
        <time>2017-09-20T09:59:03Z</time>
      </trkpt>
      <trkpt lat="42.46435" lon="2.51329">
        <ele>1650</ele>
        <time>2017-09-20T09:59:10Z</time>
      </trkpt>
      <trkpt lat="42.46435" lon="2.51335">
        <ele>1651</ele>
        <time>2017-09-20T09:59:17Z</time>
      </trkpt>
      <trkpt lat="42.46424" lon="2.51348">
        <ele>1654</ele>
        <time>2017-09-20T09:59:39Z</time>
      </trkpt>
      <trkpt lat="42.46408" lon="2.51362">
        <ele>1658</ele>
        <time>2017-09-20T10:00:11Z</time>
      </trkpt>
      <trkpt lat="42.46403" lon="2.51362">
        <ele>1659</ele>
        <time>2017-09-20T10:00:20Z</time>
      </trkpt>
      <trkpt lat="42.46398" lon="2.51354">
        <ele>1661</ele>
        <time>2017-09-20T10:00:39Z</time>
      </trkpt>
      <trkpt lat="42.464" lon="2.51349">
        <ele>1662</ele>
        <time>2017-09-20T10:00:46Z</time>
      </trkpt>
      <trkpt lat="42.464" lon="2.51344">
        <ele>1665</ele>
        <time>2017-09-20T10:10:03Z</time>
      </trkpt>
      <trkpt lat="42.46403" lon="2.51337">
        <ele>1664</ele>
        <time>2017-09-20T10:10:15Z</time>
      </trkpt>
      <trkpt lat="42.46404" lon="2.5133">
        <ele>1664</ele>
        <time>2017-09-20T10:10:20Z</time>
      </trkpt>
      <trkpt lat="42.46402" lon="2.51324">
        <ele>1664</ele>
        <time>2017-09-20T10:10:25Z</time>
      </trkpt>
      <trkpt lat="42.46401" lon="2.51318">
        <ele>1663</ele>
        <time>2017-09-20T10:10:31Z</time>
      </trkpt>
      <trkpt lat="42.46404" lon="2.51304">
        <ele>1662</ele>
        <time>2017-09-20T10:10:42Z</time>
      </trkpt>
      <trkpt lat="42.46407" lon="2.51291">
        <ele>1662</ele>
        <time>2017-09-20T10:10:53Z</time>
      </trkpt>
      <trkpt lat="42.46409" lon="2.51285">
        <ele>1662</ele>
        <time>2017-09-20T10:10:59Z</time>
      </trkpt>
      <trkpt lat="42.46411" lon="2.51279">
        <ele>1662</ele>
        <time>2017-09-20T10:11:04Z</time>
      </trkpt>
      <trkpt lat="42.46411" lon="2.51271">
        <ele>1663</ele>
        <time>2017-09-20T10:11:10Z</time>
      </trkpt>
      <trkpt lat="42.46413" lon="2.51266">
        <ele>1663</ele>
        <time>2017-09-20T10:11:16Z</time>
      </trkpt>
      <trkpt lat="42.46413" lon="2.51259">
        <ele>1663</ele>
        <time>2017-09-20T10:11:20Z</time>
      </trkpt>
      <trkpt lat="42.46412" lon="2.51252">
        <ele>1663</ele>
        <time>2017-09-20T10:11:24Z</time>
      </trkpt>
      <trkpt lat="42.46414" lon="2.51231">
        <ele>1663</ele>
        <time>2017-09-20T10:11:40Z</time>
      </trkpt>
      <trkpt lat="42.46416" lon="2.51225">
        <ele>1663</ele>
        <time>2017-09-20T10:11:45Z</time>
      </trkpt>
      <trkpt lat="42.46417" lon="2.51217">
        <ele>1663</ele>
        <time>2017-09-20T10:11:50Z</time>
      </trkpt>
      <trkpt lat="42.46423" lon="2.51206">
        <ele>1664</ele>
        <time>2017-09-20T10:11:59Z</time>
      </trkpt>
      <trkpt lat="42.46435" lon="2.51194">
        <ele>1664</ele>
        <time>2017-09-20T10:12:12Z</time>
      </trkpt>
      <trkpt lat="42.46437" lon="2.51188">
        <ele>1664</ele>
        <time>2017-09-20T10:12:17Z</time>
      </trkpt>
      <trkpt lat="42.46439" lon="2.51169">
        <ele>1664</ele>
        <time>2017-09-20T10:12:31Z</time>
      </trkpt>
      <trkpt lat="42.46441" lon="2.51163">
        <ele>1664</ele>
        <time>2017-09-20T10:12:36Z</time>
      </trkpt>
      <trkpt lat="42.46445" lon="2.51158">
        <ele>1664</ele>
        <time>2017-09-20T10:12:41Z</time>
      </trkpt>
      <trkpt lat="42.46452" lon="2.51148">
        <ele>1665</ele>
        <time>2017-09-20T10:12:50Z</time>
      </trkpt>
      <trkpt lat="42.46456" lon="2.51145">
        <ele>1665</ele>
        <time>2017-09-20T10:12:54Z</time>
      </trkpt>
      <trkpt lat="42.46459" lon="2.51139">
        <ele>1665</ele>
        <time>2017-09-20T10:12:59Z</time>
      </trkpt>
      <trkpt lat="42.4646" lon="2.51132">
        <ele>1665</ele>
        <time>2017-09-20T10:13:04Z</time>
      </trkpt>
      <trkpt lat="42.46462" lon="2.51127">
        <ele>1665</ele>
        <time>2017-09-20T10:13:09Z</time>
      </trkpt>
      <trkpt lat="42.46466" lon="2.51122">
        <ele>1665</ele>
        <time>2017-09-20T10:13:15Z</time>
      </trkpt>
      <trkpt lat="42.46467" lon="2.51116">
        <ele>1665</ele>
        <time>2017-09-20T10:13:19Z</time>
      </trkpt>
      <trkpt lat="42.46472" lon="2.51104">
        <ele>1665</ele>
        <time>2017-09-20T10:13:28Z</time>
      </trkpt>
      <trkpt lat="42.46483" lon="2.51089">
        <ele>1665</ele>
        <time>2017-09-20T10:13:40Z</time>
      </trkpt>
      <trkpt lat="42.46484" lon="2.51082">
        <ele>1666</ele>
        <time>2017-09-20T10:13:45Z</time>
      </trkpt>
      <trkpt lat="42.4649" lon="2.51072">
        <ele>1666</ele>
        <time>2017-09-20T10:13:53Z</time>
      </trkpt>
      <trkpt lat="42.46493" lon="2.51066">
        <ele>1666</ele>
        <time>2017-09-20T10:13:59Z</time>
      </trkpt>
      <trkpt lat="42.46509" lon="2.51046">
        <ele>1666</ele>
        <time>2017-09-20T10:14:15Z</time>
      </trkpt>
      <trkpt lat="42.46511" lon="2.5104">
        <ele>1667</ele>
        <time>2017-09-20T10:14:19Z</time>
      </trkpt>
      <trkpt lat="42.4652" lon="2.51016">
        <ele>1669</ele>
        <time>2017-09-20T10:14:36Z</time>
      </trkpt>
      <trkpt lat="42.46524" lon="2.5101">
        <ele>1669</ele>
        <time>2017-09-20T10:14:40Z</time>
      </trkpt>
      <trkpt lat="42.46525" lon="2.51004">
        <ele>1670</ele>
        <time>2017-09-20T10:14:44Z</time>
      </trkpt>
      <trkpt lat="42.46529" lon="2.50998">
        <ele>1670</ele>
        <time>2017-09-20T10:14:49Z</time>
      </trkpt>
      <trkpt lat="42.46534" lon="2.50995">
        <ele>1670</ele>
        <time>2017-09-20T10:14:53Z</time>
      </trkpt>
      <trkpt lat="42.46539" lon="2.50992">
        <ele>1670</ele>
        <time>2017-09-20T10:14:57Z</time>
      </trkpt>
      <trkpt lat="42.46542" lon="2.50986">
        <ele>1670</ele>
        <time>2017-09-20T10:15:02Z</time>
      </trkpt>
      <trkpt lat="42.46546" lon="2.50983">
        <ele>1670</ele>
        <time>2017-09-20T10:15:06Z</time>
      </trkpt>
      <trkpt lat="42.46555" lon="2.50974">
        <ele>1670</ele>
        <time>2017-09-20T10:15:15Z</time>
      </trkpt>
      <trkpt lat="42.4656" lon="2.50971">
        <ele>1670</ele>
        <time>2017-09-20T10:15:20Z</time>
      </trkpt>
      <trkpt lat="42.46564" lon="2.50966">
        <ele>1670</ele>
        <time>2017-09-20T10:15:25Z</time>
      </trkpt>
      <trkpt lat="42.46569" lon="2.50963">
        <ele>1670</ele>
        <time>2017-09-20T10:15:29Z</time>
      </trkpt>
      <trkpt lat="42.46572" lon="2.50958">
        <ele>1670</ele>
        <time>2017-09-20T10:15:34Z</time>
      </trkpt>
      <trkpt lat="42.46577" lon="2.50954">
        <ele>1670</ele>
        <time>2017-09-20T10:15:37Z</time>
      </trkpt>
      <trkpt lat="42.46581" lon="2.50949">
        <ele>1670</ele>
        <time>2017-09-20T10:15:41Z</time>
      </trkpt>
      <trkpt lat="42.46587" lon="2.5093">
        <ele>1670</ele>
        <time>2017-09-20T10:15:54Z</time>
      </trkpt>
      <trkpt lat="42.46587" lon="2.50924">
        <ele>1670</ele>
        <time>2017-09-20T10:15:59Z</time>
      </trkpt>
      <trkpt lat="42.46583" lon="2.50911">
        <ele>1670</ele>
        <time>2017-09-20T10:16:08Z</time>
      </trkpt>
      <trkpt lat="42.46584" lon="2.50903">
        <ele>1670</ele>
        <time>2017-09-20T10:16:12Z</time>
      </trkpt>
      <trkpt lat="42.46587" lon="2.50897">
        <ele>1670</ele>
        <time>2017-09-20T10:16:16Z</time>
      </trkpt>
      <trkpt lat="42.4659" lon="2.50893">
        <ele>1670</ele>
        <time>2017-09-20T10:16:20Z</time>
      </trkpt>
      <trkpt lat="42.46594" lon="2.5089">
        <ele>1670</ele>
        <time>2017-09-20T10:16:24Z</time>
      </trkpt>
      <trkpt lat="42.46597" lon="2.50885">
        <ele>1670</ele>
        <time>2017-09-20T10:16:29Z</time>
      </trkpt>
      <trkpt lat="42.46602" lon="2.50883">
        <ele>1670</ele>
        <time>2017-09-20T10:16:33Z</time>
      </trkpt>
      <trkpt lat="42.46606" lon="2.50883">
        <ele>1670</ele>
        <time>2017-09-20T10:16:37Z</time>
      </trkpt>
      <trkpt lat="42.46611" lon="2.50886">
        <ele>1670</ele>
        <time>2017-09-20T10:16:42Z</time>
      </trkpt>
      <trkpt lat="42.46616" lon="2.50887">
        <ele>1670</ele>
        <time>2017-09-20T10:16:46Z</time>
      </trkpt>
      <trkpt lat="42.46621" lon="2.5089">
        <ele>1671</ele>
        <time>2017-09-20T10:16:51Z</time>
      </trkpt>
      <trkpt lat="42.46625" lon="2.50895">
        <ele>1671</ele>
        <time>2017-09-20T10:16:56Z</time>
      </trkpt>
      <trkpt lat="42.46637" lon="2.50906">
        <ele>1673</ele>
        <time>2017-09-20T10:17:08Z</time>
      </trkpt>
      <trkpt lat="42.46638" lon="2.50912">
        <ele>1674</ele>
        <time>2017-09-20T10:17:13Z</time>
      </trkpt>
      <trkpt lat="42.46645" lon="2.50924">
        <ele>1675</ele>
        <time>2017-09-20T10:17:23Z</time>
      </trkpt>
      <trkpt lat="42.46649" lon="2.50928">
        <ele>1675</ele>
        <time>2017-09-20T10:17:27Z</time>
      </trkpt>
      <trkpt lat="42.46655" lon="2.50939">
        <ele>1676</ele>
        <time>2017-09-20T10:17:38Z</time>
      </trkpt>
      <trkpt lat="42.46658" lon="2.50944">
        <ele>1676</ele>
        <time>2017-09-20T10:17:49Z</time>
      </trkpt>
      <trkpt lat="42.4668" lon="2.50971">
        <ele>1677</ele>
        <time>2017-09-20T10:18:14Z</time>
      </trkpt>
      <trkpt lat="42.46685" lon="2.50975">
        <ele>1678</ele>
        <time>2017-09-20T10:18:18Z</time>
      </trkpt>
      <trkpt lat="42.46688" lon="2.5098">
        <ele>1678</ele>
        <time>2017-09-20T10:18:23Z</time>
      </trkpt>
      <trkpt lat="42.46692" lon="2.50984">
        <ele>1678</ele>
        <time>2017-09-20T10:18:27Z</time>
      </trkpt>
      <trkpt lat="42.46697" lon="2.50986">
        <ele>1678</ele>
        <time>2017-09-20T10:18:31Z</time>
      </trkpt>
      <trkpt lat="42.46723" lon="2.50987">
        <ele>1678</ele>
        <time>2017-09-20T10:18:54Z</time>
      </trkpt>
      <trkpt lat="42.46738" lon="2.50986">
        <ele>1678</ele>
        <time>2017-09-20T10:19:07Z</time>
      </trkpt>
      <trkpt lat="42.46742" lon="2.50987">
        <ele>1678</ele>
        <time>2017-09-20T10:19:13Z</time>
      </trkpt>
      <trkpt lat="42.46749" lon="2.50988">
        <ele>1678</ele>
        <time>2017-09-20T10:19:29Z</time>
      </trkpt>
      <trkpt lat="42.46785" lon="2.50973">
        <ele>1680</ele>
        <time>2017-09-20T10:19:59Z</time>
      </trkpt>
      <trkpt lat="42.46802" lon="2.50959">
        <ele>1680</ele>
        <time>2017-09-20T10:20:17Z</time>
      </trkpt>
      <trkpt lat="42.46805" lon="2.50954">
        <ele>1681</ele>
        <time>2017-09-20T10:20:22Z</time>
      </trkpt>
      <trkpt lat="42.46823" lon="2.50939">
        <ele>1682</ele>
        <time>2017-09-20T10:21:10Z</time>
      </trkpt>
      <trkpt lat="42.46827" lon="2.50936">
        <ele>1682</ele>
        <time>2017-09-20T10:21:27Z</time>
      </trkpt>
      <trkpt lat="42.46831" lon="2.50929">
        <ele>1683</ele>
        <time>2017-09-20T10:21:41Z</time>
      </trkpt>
      <trkpt lat="42.46834" lon="2.50925">
        <ele>1683</ele>
        <time>2017-09-20T10:21:45Z</time>
      </trkpt>
      <trkpt lat="42.46844" lon="2.5092">
        <ele>1684</ele>
        <time>2017-09-20T10:21:50Z</time>
      </trkpt>
      <trkpt lat="42.46852" lon="2.50913">
        <ele>1684</ele>
        <time>2017-09-20T10:21:56Z</time>
      </trkpt>
      <trkpt lat="42.46856" lon="2.50903">
        <ele>1685</ele>
        <time>2017-09-20T10:22:58Z</time>
      </trkpt>
      <trkpt lat="42.46862" lon="2.50911">
        <ele>1685</ele>
        <time>2017-09-20T10:23:08Z</time>
      </trkpt>
      <trkpt lat="42.46865" lon="2.50906">
        <ele>1685</ele>
        <time>2017-09-20T10:23:25Z</time>
      </trkpt>
      <trkpt lat="42.46873" lon="2.50904">
        <ele>1684</ele>
        <time>2017-09-20T10:25:47Z</time>
      </trkpt>
      <trkpt lat="42.46883" lon="2.50907">
        <ele>1683</ele>
        <time>2017-09-20T10:25:56Z</time>
      </trkpt>
      <trkpt lat="42.46893" lon="2.50906">
        <ele>1682</ele>
        <time>2017-09-20T10:26:07Z</time>
      </trkpt>
      <trkpt lat="42.46908" lon="2.50902">
        <ele>1681</ele>
        <time>2017-09-20T10:26:24Z</time>
      </trkpt>
      <trkpt lat="42.46919" lon="2.50905">
        <ele>1680</ele>
        <time>2017-09-20T10:26:35Z</time>
      </trkpt>
      <trkpt lat="42.46929" lon="2.50904">
        <ele>1680</ele>
        <time>2017-09-20T10:26:43Z</time>
      </trkpt>
      <trkpt lat="42.46958" lon="2.50905">
        <ele>1678</ele>
        <time>2017-09-20T10:27:14Z</time>
      </trkpt>
      <trkpt lat="42.46973" lon="2.50909">
        <ele>1677</ele>
        <time>2017-09-20T10:27:27Z</time>
      </trkpt>
      <trkpt lat="42.46977" lon="2.50906">
        <ele>1678</ele>
        <time>2017-09-20T10:27:33Z</time>
      </trkpt>
      <trkpt lat="42.4698" lon="2.50901">
        <ele>1677</ele>
        <time>2017-09-20T10:27:39Z</time>
      </trkpt>
      <trkpt lat="42.46985" lon="2.50899">
        <ele>1677</ele>
        <time>2017-09-20T10:27:43Z</time>
      </trkpt>
      <trkpt lat="42.47001" lon="2.50883">
        <ele>1676</ele>
        <time>2017-09-20T10:28:10Z</time>
      </trkpt>
      <trkpt lat="42.47001" lon="2.50876">
        <ele>1676</ele>
        <time>2017-09-20T10:28:16Z</time>
      </trkpt>
      <trkpt lat="42.47003" lon="2.5087">
        <ele>1675</ele>
        <time>2017-09-20T10:28:22Z</time>
      </trkpt>
      <trkpt lat="42.47034" lon="2.50843">
        <ele>1672</ele>
        <time>2017-09-20T10:29:01Z</time>
      </trkpt>
      <trkpt lat="42.47041" lon="2.50832">
        <ele>1671</ele>
        <time>2017-09-20T10:29:12Z</time>
      </trkpt>
      <trkpt lat="42.47066" lon="2.50812">
        <ele>1666</ele>
        <time>2017-09-20T10:29:44Z</time>
      </trkpt>
      <trkpt lat="42.4707" lon="2.50809">
        <ele>1665</ele>
        <time>2017-09-20T10:29:49Z</time>
      </trkpt>
      <trkpt lat="42.47081" lon="2.50807">
        <ele>1664</ele>
        <time>2017-09-20T10:29:58Z</time>
      </trkpt>
      <trkpt lat="42.47086" lon="2.50808">
        <ele>1664</ele>
        <time>2017-09-20T10:30:03Z</time>
      </trkpt>
      <trkpt lat="42.47091" lon="2.5081">
        <ele>1663</ele>
        <time>2017-09-20T10:30:07Z</time>
      </trkpt>
      <trkpt lat="42.47095" lon="2.5081">
        <ele>1663</ele>
        <time>2017-09-20T10:30:11Z</time>
      </trkpt>
      <trkpt lat="42.47104" lon="2.50806">
        <ele>1662</ele>
        <time>2017-09-20T10:30:21Z</time>
      </trkpt>
      <trkpt lat="42.47114" lon="2.50803">
        <ele>1662</ele>
        <time>2017-09-20T10:30:33Z</time>
      </trkpt>
      <trkpt lat="42.47123" lon="2.50787">
        <ele>1661</ele>
        <time>2017-09-20T10:30:53Z</time>
      </trkpt>
      <trkpt lat="42.47128" lon="2.50784">
        <ele>1660</ele>
        <time>2017-09-20T10:30:59Z</time>
      </trkpt>
      <trkpt lat="42.47137" lon="2.50789">
        <ele>1660</ele>
        <time>2017-09-20T10:31:07Z</time>
      </trkpt>
      <trkpt lat="42.47146" lon="2.50805">
        <ele>1660</ele>
        <time>2017-09-20T10:31:21Z</time>
      </trkpt>
      <trkpt lat="42.47149" lon="2.50813">
        <ele>1659</ele>
        <time>2017-09-20T10:31:42Z</time>
      </trkpt>
      <trkpt lat="42.47154" lon="2.50813">
        <ele>1659</ele>
        <time>2017-09-20T10:32:12Z</time>
      </trkpt>
      <trkpt lat="42.47155" lon="2.50807">
        <ele>1660</ele>
        <time>2017-09-20T10:32:19Z</time>
      </trkpt>
      <trkpt lat="42.47157" lon="2.50801">
        <ele>1660</ele>
        <time>2017-09-20T10:32:25Z</time>
      </trkpt>
      <trkpt lat="42.47167" lon="2.5079">
        <ele>1662</ele>
        <time>2017-09-20T10:32:52Z</time>
      </trkpt>
      <trkpt lat="42.4717" lon="2.50785">
        <ele>1663</ele>
        <time>2017-09-20T10:33:00Z</time>
      </trkpt>
      <trkpt lat="42.47175" lon="2.50772">
        <ele>1666</ele>
        <time>2017-09-20T10:33:26Z</time>
      </trkpt>
      <trkpt lat="42.4718" lon="2.50768">
        <ele>1668</ele>
        <time>2017-09-20T10:33:43Z</time>
      </trkpt>
      <trkpt lat="42.47185" lon="2.50766">
        <ele>1671</ele>
        <time>2017-09-20T10:34:06Z</time>
      </trkpt>
      <trkpt lat="42.47191" lon="2.50759">
        <ele>1672</ele>
        <time>2017-09-20T10:34:23Z</time>
      </trkpt>
      <trkpt lat="42.47199" lon="2.50755">
        <ele>1674</ele>
        <time>2017-09-20T10:34:55Z</time>
      </trkpt>
      <trkpt lat="42.47205" lon="2.5076">
        <ele>1675</ele>
        <time>2017-09-20T10:36:06Z</time>
      </trkpt>
      <trkpt lat="42.47209" lon="2.50758">
        <ele>1675</ele>
        <time>2017-09-20T10:38:56Z</time>
      </trkpt>
      <trkpt lat="42.47222" lon="2.5075">
        <ele>1676</ele>
        <time>2017-09-20T10:39:15Z</time>
      </trkpt>
      <trkpt lat="42.47231" lon="2.50742">
        <ele>1676</ele>
        <time>2017-09-20T10:39:25Z</time>
      </trkpt>
      <trkpt lat="42.47236" lon="2.50741">
        <ele>1676</ele>
        <time>2017-09-20T10:39:33Z</time>
      </trkpt>
      <trkpt lat="42.4724" lon="2.50737">
        <ele>1677</ele>
        <time>2017-09-20T10:39:47Z</time>
      </trkpt>
      <trkpt lat="42.47247" lon="2.50731">
        <ele>1680</ele>
        <time>2017-09-20T10:40:04Z</time>
      </trkpt>
      <trkpt lat="42.47249" lon="2.50735">
        <ele>1683</ele>
        <time>2017-09-20T10:42:32Z</time>
      </trkpt>
      <trkpt lat="42.47245" lon="2.50739">
        <ele>1683</ele>
        <time>2017-09-20T10:42:38Z</time>
      </trkpt>
      <trkpt lat="42.47245" lon="2.50746">
        <ele>1682</ele>
        <time>2017-09-20T10:42:44Z</time>
      </trkpt>
      <trkpt lat="42.47241" lon="2.50749">
        <ele>1682</ele>
        <time>2017-09-20T10:42:49Z</time>
      </trkpt>
      <trkpt lat="42.47237" lon="2.50747">
        <ele>1681</ele>
        <time>2017-09-20T10:42:54Z</time>
      </trkpt>
      <trkpt lat="42.47236" lon="2.50754">
        <ele>1680</ele>
        <time>2017-09-20T10:43:04Z</time>
      </trkpt>
      <trkpt lat="42.47236" lon="2.5076">
        <ele>1680</ele>
        <time>2017-09-20T10:43:09Z</time>
      </trkpt>
      <trkpt lat="42.47241" lon="2.50762">
        <ele>1681</ele>
        <time>2017-09-20T10:48:46Z</time>
      </trkpt>
      <trkpt lat="42.4724" lon="2.50761">
        <ele>1680</ele>
        <time>2017-09-20T11:41:52Z</time>
      </trkpt>
      <trkpt lat="42.47241" lon="2.50768">
        <ele>1680</ele>
        <time>2017-09-20T11:44:09Z</time>
      </trkpt>
      <trkpt lat="42.4724" lon="2.50778">
        <ele>1681</ele>
        <time>2017-09-20T11:44:38Z</time>
      </trkpt>
      <trkpt lat="42.47241" lon="2.50784">
        <ele>1679</ele>
        <time>2017-09-20T11:44:46Z</time>
      </trkpt>
      <trkpt lat="42.4724" lon="2.50791">
        <ele>1678</ele>
        <time>2017-09-20T11:44:51Z</time>
      </trkpt>
      <trkpt lat="42.47241" lon="2.50799">
        <ele>1677</ele>
        <time>2017-09-20T11:44:55Z</time>
      </trkpt>
      <trkpt lat="42.47237" lon="2.50804">
        <ele>1676</ele>
        <time>2017-09-20T11:45:00Z</time>
      </trkpt>
      <trkpt lat="42.47234" lon="2.50809">
        <ele>1674</ele>
        <time>2017-09-20T11:45:04Z</time>
      </trkpt>
      <trkpt lat="42.47234" lon="2.50827">
        <ele>1672</ele>
        <time>2017-09-20T11:45:36Z</time>
      </trkpt>
      <trkpt lat="42.47235" lon="2.50849">
        <ele>1668</ele>
        <time>2017-09-20T11:45:47Z</time>
      </trkpt>
      <trkpt lat="42.47236" lon="2.50864">
        <ele>1666</ele>
        <time>2017-09-20T11:45:55Z</time>
      </trkpt>
      <trkpt lat="42.47246" lon="2.50871">
        <ele>1665</ele>
        <time>2017-09-20T11:46:23Z</time>
      </trkpt>
      <trkpt lat="42.47283" lon="2.5091">
        <ele>1662</ele>
        <time>2017-09-20T11:46:56Z</time>
      </trkpt>
      <trkpt lat="42.47291" lon="2.5092">
        <ele>1661</ele>
        <time>2017-09-20T11:47:04Z</time>
      </trkpt>
      <trkpt lat="42.47299" lon="2.50938">
        <ele>1659</ele>
        <time>2017-09-20T11:47:15Z</time>
      </trkpt>
      <trkpt lat="42.473" lon="2.50952">
        <ele>1658</ele>
        <time>2017-09-20T11:47:23Z</time>
      </trkpt>
      <trkpt lat="42.473" lon="2.5096">
        <ele>1658</ele>
        <time>2017-09-20T11:47:27Z</time>
      </trkpt>
      <trkpt lat="42.47301" lon="2.50966">
        <ele>1657</ele>
        <time>2017-09-20T11:47:30Z</time>
      </trkpt>
      <trkpt lat="42.47306" lon="2.50978">
        <ele>1656</ele>
        <time>2017-09-20T11:47:36Z</time>
      </trkpt>
      <trkpt lat="42.4731" lon="2.50999">
        <ele>1655</ele>
        <time>2017-09-20T11:47:47Z</time>
      </trkpt>
      <trkpt lat="42.47309" lon="2.51012">
        <ele>1654</ele>
        <time>2017-09-20T11:47:58Z</time>
      </trkpt>
      <trkpt lat="42.47312" lon="2.51017">
        <ele>1653</ele>
        <time>2017-09-20T11:48:05Z</time>
      </trkpt>
      <trkpt lat="42.47315" lon="2.51024">
        <ele>1645</ele>
        <time>2017-09-20T11:53:11Z</time>
      </trkpt>
      <trkpt lat="42.47314" lon="2.51036">
        <ele>1642</ele>
        <time>2017-09-20T11:53:28Z</time>
      </trkpt>
      <trkpt lat="42.47314" lon="2.51049">
        <ele>1639</ele>
        <time>2017-09-20T11:53:38Z</time>
      </trkpt>
      <trkpt lat="42.47316" lon="2.51061">
        <ele>1638</ele>
        <time>2017-09-20T11:53:49Z</time>
      </trkpt>
      <trkpt lat="42.47314" lon="2.51074">
        <ele>1636</ele>
        <time>2017-09-20T11:54:00Z</time>
      </trkpt>
      <trkpt lat="42.47318" lon="2.51085">
        <ele>1634</ele>
        <time>2017-09-20T11:54:14Z</time>
      </trkpt>
      <trkpt lat="42.47325" lon="2.511">
        <ele>1629</ele>
        <time>2017-09-20T11:54:40Z</time>
      </trkpt>
      <trkpt lat="42.47334" lon="2.51137">
        <ele>1623</ele>
        <time>2017-09-20T11:55:13Z</time>
      </trkpt>
      <trkpt lat="42.47337" lon="2.51161">
        <ele>1619</ele>
        <time>2017-09-20T11:55:35Z</time>
      </trkpt>
      <trkpt lat="42.47342" lon="2.51172">
        <ele>1617</ele>
        <time>2017-09-20T11:55:48Z</time>
      </trkpt>
      <trkpt lat="42.47345" lon="2.51185">
        <ele>1615</ele>
        <time>2017-09-20T11:55:56Z</time>
      </trkpt>
      <trkpt lat="42.47343" lon="2.512">
        <ele>1614</ele>
        <time>2017-09-20T11:56:12Z</time>
      </trkpt>
      <trkpt lat="42.47343" lon="2.51213">
        <ele>1611</ele>
        <time>2017-09-20T11:56:21Z</time>
      </trkpt>
      <trkpt lat="42.47336" lon="2.51249">
        <ele>1606</ele>
        <time>2017-09-20T11:56:55Z</time>
      </trkpt>
      <trkpt lat="42.47328" lon="2.51286">
        <ele>1599</ele>
        <time>2017-09-20T11:57:32Z</time>
      </trkpt>
      <trkpt lat="42.47324" lon="2.51313">
        <ele>1595</ele>
        <time>2017-09-20T11:58:02Z</time>
      </trkpt>
      <trkpt lat="42.4733" lon="2.51324">
        <ele>1594</ele>
        <time>2017-09-20T11:58:10Z</time>
      </trkpt>
      <trkpt lat="42.47321" lon="2.5133">
        <ele>1591</ele>
        <time>2017-09-20T11:58:39Z</time>
      </trkpt>
      <trkpt lat="42.47314" lon="2.51344">
        <ele>1589</ele>
        <time>2017-09-20T11:59:05Z</time>
      </trkpt>
      <trkpt lat="42.47306" lon="2.51351">
        <ele>1589</ele>
        <time>2017-09-20T11:59:14Z</time>
      </trkpt>
      <trkpt lat="42.47306" lon="2.51378">
        <ele>1582</ele>
        <time>2017-09-20T11:59:53Z</time>
      </trkpt>
      <trkpt lat="42.47302" lon="2.5139">
        <ele>1581</ele>
        <time>2017-09-20T12:00:03Z</time>
      </trkpt>
      <trkpt lat="42.47301" lon="2.51403">
        <ele>1578</ele>
        <time>2017-09-20T12:00:16Z</time>
      </trkpt>
      <trkpt lat="42.47301" lon="2.51416">
        <ele>1577</ele>
        <time>2017-09-20T12:00:25Z</time>
      </trkpt>
      <trkpt lat="42.47297" lon="2.51427">
        <ele>1576</ele>
        <time>2017-09-20T12:00:32Z</time>
      </trkpt>
      <trkpt lat="42.47299" lon="2.5144">
        <ele>1574</ele>
        <time>2017-09-20T12:00:44Z</time>
      </trkpt>
      <trkpt lat="42.47298" lon="2.51453">
        <ele>1572</ele>
        <time>2017-09-20T12:00:57Z</time>
      </trkpt>
      <trkpt lat="42.47306" lon="2.51477">
        <ele>1569</ele>
        <time>2017-09-20T12:01:22Z</time>
      </trkpt>
      <trkpt lat="42.47312" lon="2.51486">
        <ele>1568</ele>
        <time>2017-09-20T12:01:29Z</time>
      </trkpt>
      <trkpt lat="42.47319" lon="2.51498">
        <ele>1567</ele>
        <time>2017-09-20T12:02:28Z</time>
      </trkpt>
      <trkpt lat="42.47331" lon="2.51499">
        <ele>1566</ele>
        <time>2017-09-20T12:02:52Z</time>
      </trkpt>
      <trkpt lat="42.47342" lon="2.51513">
        <ele>1563</ele>
        <time>2017-09-20T12:03:30Z</time>
      </trkpt>
      <trkpt lat="42.47352" lon="2.51536">
        <ele>1562</ele>
        <time>2017-09-20T12:03:46Z</time>
      </trkpt>
      <trkpt lat="42.47363" lon="2.51564">
        <ele>1558</ele>
        <time>2017-09-20T12:04:30Z</time>
      </trkpt>
      <trkpt lat="42.47365" lon="2.51577">
        <ele>1556</ele>
        <time>2017-09-20T12:04:48Z</time>
      </trkpt>
      <trkpt lat="42.47369" lon="2.51588">
        <ele>1555</ele>
        <time>2017-09-20T12:04:57Z</time>
      </trkpt>
      <trkpt lat="42.47376" lon="2.51614">
        <ele>1552</ele>
        <time>2017-09-20T12:05:39Z</time>
      </trkpt>
      <trkpt lat="42.47379" lon="2.51626">
        <ele>1551</ele>
        <time>2017-09-20T12:05:50Z</time>
      </trkpt>
      <trkpt lat="42.47378" lon="2.51639">
        <ele>1550</ele>
        <time>2017-09-20T12:06:07Z</time>
      </trkpt>
      <trkpt lat="42.47384" lon="2.51678">
        <ele>1547</ele>
        <time>2017-09-20T12:06:36Z</time>
      </trkpt>
      <trkpt lat="42.47389" lon="2.51689">
        <ele>1546</ele>
        <time>2017-09-20T12:06:45Z</time>
      </trkpt>
      <trkpt lat="42.474" lon="2.51693">
        <ele>1545</ele>
        <time>2017-09-20T12:07:11Z</time>
      </trkpt>
      <trkpt lat="42.47409" lon="2.5169">
        <ele>1543</ele>
        <time>2017-09-20T12:07:27Z</time>
      </trkpt>
      <trkpt lat="42.47414" lon="2.51702">
        <ele>1542</ele>
        <time>2017-09-20T12:07:36Z</time>
      </trkpt>
      <trkpt lat="42.4744" lon="2.51727">
        <ele>1536</ele>
        <time>2017-09-20T12:08:14Z</time>
      </trkpt>
      <trkpt lat="42.47467" lon="2.51739">
        <ele>1531</ele>
        <time>2017-09-20T12:08:52Z</time>
      </trkpt>
      <trkpt lat="42.47482" lon="2.51754">
        <ele>1528</ele>
        <time>2017-09-20T12:09:14Z</time>
      </trkpt>
      <trkpt lat="42.47491" lon="2.51756">
        <ele>1525</ele>
        <time>2017-09-20T12:09:24Z</time>
      </trkpt>
      <trkpt lat="42.47501" lon="2.51755">
        <ele>1524</ele>
        <time>2017-09-20T12:09:38Z</time>
      </trkpt>
      <trkpt lat="42.47511" lon="2.51766">
        <ele>1522</ele>
        <time>2017-09-20T12:09:51Z</time>
      </trkpt>
      <trkpt lat="42.47539" lon="2.51777">
        <ele>1518</ele>
        <time>2017-09-20T12:10:18Z</time>
      </trkpt>
      <trkpt lat="42.47548" lon="2.51775">
        <ele>1516</ele>
        <time>2017-09-20T12:10:28Z</time>
      </trkpt>
      <trkpt lat="42.47556" lon="2.51783">
        <ele>1514</ele>
        <time>2017-09-20T12:10:39Z</time>
      </trkpt>
      <trkpt lat="42.47565" lon="2.51782">
        <ele>1513</ele>
        <time>2017-09-20T12:10:50Z</time>
      </trkpt>
      <trkpt lat="42.47593" lon="2.51793">
        <ele>1508</ele>
        <time>2017-09-20T12:11:22Z</time>
      </trkpt>
      <trkpt lat="42.47602" lon="2.51789">
        <ele>1507</ele>
        <time>2017-09-20T12:11:35Z</time>
      </trkpt>
      <trkpt lat="42.47609" lon="2.51799">
        <ele>1505</ele>
        <time>2017-09-20T12:11:45Z</time>
      </trkpt>
      <trkpt lat="42.47619" lon="2.51802">
        <ele>1504</ele>
        <time>2017-09-20T12:11:55Z</time>
      </trkpt>
      <trkpt lat="42.47643" lon="2.51821">
        <ele>1497</ele>
        <time>2017-09-20T12:12:33Z</time>
      </trkpt>
      <trkpt lat="42.4766" lon="2.51818">
        <ele>1495</ele>
        <time>2017-09-20T12:13:10Z</time>
      </trkpt>
      <trkpt lat="42.47676" lon="2.51819">
        <ele>1493</ele>
        <time>2017-09-20T12:14:11Z</time>
      </trkpt>
      <trkpt lat="42.47684" lon="2.51813">
        <ele>1490</ele>
        <time>2017-09-20T12:14:25Z</time>
      </trkpt>
      <trkpt lat="42.4769" lon="2.51803">
        <ele>1489</ele>
        <time>2017-09-20T12:14:34Z</time>
      </trkpt>
      <trkpt lat="42.47691" lon="2.5179">
        <ele>1487</ele>
        <time>2017-09-20T12:14:43Z</time>
      </trkpt>
      <trkpt lat="42.47698" lon="2.5178">
        <ele>1486</ele>
        <time>2017-09-20T12:15:02Z</time>
      </trkpt>
      <trkpt lat="42.47707" lon="2.51745">
        <ele>1482</ele>
        <time>2017-09-20T12:15:33Z</time>
      </trkpt>
      <trkpt lat="42.47715" lon="2.51739">
        <ele>1481</ele>
        <time>2017-09-20T12:15:45Z</time>
      </trkpt>
      <trkpt lat="42.47719" lon="2.51727">
        <ele>1480</ele>
        <time>2017-09-20T12:15:54Z</time>
      </trkpt>
      <trkpt lat="42.47732" lon="2.51708">
        <ele>1478</ele>
        <time>2017-09-20T12:16:18Z</time>
      </trkpt>
      <trkpt lat="42.47741" lon="2.51702">
        <ele>1477</ele>
        <time>2017-09-20T12:16:47Z</time>
      </trkpt>
      <trkpt lat="42.4774" lon="2.51688">
        <ele>1476</ele>
        <time>2017-09-20T12:17:10Z</time>
      </trkpt>
      <trkpt lat="42.47741" lon="2.51682">
        <ele>1474</ele>
        <time>2017-09-20T12:18:01Z</time>
      </trkpt>
      <trkpt lat="42.47745" lon="2.51677">
        <ele>1474</ele>
        <time>2017-09-20T12:18:08Z</time>
      </trkpt>
      <trkpt lat="42.47748" lon="2.51671">
        <ele>1473</ele>
        <time>2017-09-20T12:18:26Z</time>
      </trkpt>
      <trkpt lat="42.4775" lon="2.51665">
        <ele>1473</ele>
        <time>2017-09-20T12:18:30Z</time>
      </trkpt>
      <trkpt lat="42.47753" lon="2.51652">
        <ele>1471</ele>
        <time>2017-09-20T12:18:39Z</time>
      </trkpt>
      <trkpt lat="42.47754" lon="2.51638">
        <ele>1469</ele>
        <time>2017-09-20T12:18:48Z</time>
      </trkpt>
      <trkpt lat="42.47753" lon="2.5163">
        <ele>1469</ele>
        <time>2017-09-20T12:18:53Z</time>
      </trkpt>
      <trkpt lat="42.47754" lon="2.51622">
        <ele>1468</ele>
        <time>2017-09-20T12:19:06Z</time>
      </trkpt>
      <trkpt lat="42.47766" lon="2.51617">
        <ele>1468</ele>
        <time>2017-09-20T12:20:00Z</time>
      </trkpt>
      <trkpt lat="42.47775" lon="2.51612">
        <ele>1466</ele>
        <time>2017-09-20T12:20:13Z</time>
      </trkpt>
      <trkpt lat="42.47778" lon="2.51607">
        <ele>1465</ele>
        <time>2017-09-20T12:20:21Z</time>
      </trkpt>
      <trkpt lat="42.47778" lon="2.516">
        <ele>1464</ele>
        <time>2017-09-20T12:20:30Z</time>
      </trkpt>
      <trkpt lat="42.4778" lon="2.51595">
        <ele>1463</ele>
        <time>2017-09-20T12:20:38Z</time>
      </trkpt>
      <trkpt lat="42.47785" lon="2.51595">
        <ele>1463</ele>
        <time>2017-09-20T12:20:46Z</time>
      </trkpt>
      <trkpt lat="42.47789" lon="2.5159">
        <ele>1461</ele>
        <time>2017-09-20T12:20:54Z</time>
      </trkpt>
      <trkpt lat="42.47793" lon="2.51587">
        <ele>1461</ele>
        <time>2017-09-20T12:21:01Z</time>
      </trkpt>
      <trkpt lat="42.47803" lon="2.51584">
        <ele>1460</ele>
        <time>2017-09-20T12:21:11Z</time>
      </trkpt>
      <trkpt lat="42.47808" lon="2.51579">
        <ele>1459</ele>
        <time>2017-09-20T12:21:20Z</time>
      </trkpt>
      <trkpt lat="42.47813" lon="2.51577">
        <ele>1459</ele>
        <time>2017-09-20T12:21:25Z</time>
      </trkpt>
      <trkpt lat="42.47826" lon="2.51568">
        <ele>1457</ele>
        <time>2017-09-20T12:21:46Z</time>
      </trkpt>
      <trkpt lat="42.47834" lon="2.5156">
        <ele>1456</ele>
        <time>2017-09-20T12:22:01Z</time>
      </trkpt>
      <trkpt lat="42.47841" lon="2.51552">
        <ele>1455</ele>
        <time>2017-09-20T12:22:20Z</time>
      </trkpt>
      <trkpt lat="42.47848" lon="2.51547">
        <ele>1455</ele>
        <time>2017-09-20T12:22:35Z</time>
      </trkpt>
      <trkpt lat="42.47851" lon="2.51542">
        <ele>1455</ele>
        <time>2017-09-20T12:22:41Z</time>
      </trkpt>
      <trkpt lat="42.47858" lon="2.51533">
        <ele>1453</ele>
        <time>2017-09-20T12:22:55Z</time>
      </trkpt>
      <trkpt lat="42.47867" lon="2.51528">
        <ele>1451</ele>
        <time>2017-09-20T12:23:07Z</time>
      </trkpt>
      <trkpt lat="42.47871" lon="2.51524">
        <ele>1450</ele>
        <time>2017-09-20T12:23:15Z</time>
      </trkpt>
      <trkpt lat="42.47875" lon="2.51519">
        <ele>1450</ele>
        <time>2017-09-20T12:23:20Z</time>
      </trkpt>
      <trkpt lat="42.47879" lon="2.51516">
        <ele>1449</ele>
        <time>2017-09-20T12:23:25Z</time>
      </trkpt>
      <trkpt lat="42.47902" lon="2.51492">
        <ele>1446</ele>
        <time>2017-09-20T12:23:55Z</time>
      </trkpt>
      <trkpt lat="42.47929" lon="2.51479">
        <ele>1443</ele>
        <time>2017-09-20T12:25:05Z</time>
      </trkpt>
      <trkpt lat="42.47933" lon="2.51476">
        <ele>1443</ele>
        <time>2017-09-20T12:25:11Z</time>
      </trkpt>
      <trkpt lat="42.47939" lon="2.5147">
        <ele>1441</ele>
        <time>2017-09-20T12:25:36Z</time>
      </trkpt>
      <trkpt lat="42.47939" lon="2.51463">
        <ele>1440</ele>
        <time>2017-09-20T12:25:43Z</time>
      </trkpt>
      <trkpt lat="42.47943" lon="2.51452">
        <ele>1438</ele>
        <time>2017-09-20T12:25:52Z</time>
      </trkpt>
      <trkpt lat="42.47946" lon="2.51447">
        <ele>1437</ele>
        <time>2017-09-20T12:25:57Z</time>
      </trkpt>
      <trkpt lat="42.47948" lon="2.51434">
        <ele>1435</ele>
        <time>2017-09-20T12:26:09Z</time>
      </trkpt>
      <trkpt lat="42.47952" lon="2.5143">
        <ele>1434</ele>
        <time>2017-09-20T12:26:16Z</time>
      </trkpt>
      <trkpt lat="42.47959" lon="2.51419">
        <ele>1432</ele>
        <time>2017-09-20T12:26:28Z</time>
      </trkpt>
      <trkpt lat="42.47967" lon="2.51412">
        <ele>1431</ele>
        <time>2017-09-20T12:26:35Z</time>
      </trkpt>
      <trkpt lat="42.47971" lon="2.51401">
        <ele>1431</ele>
        <time>2017-09-20T12:26:48Z</time>
      </trkpt>
      <trkpt lat="42.47981" lon="2.514">
        <ele>1433</ele>
        <time>2017-09-20T12:27:04Z</time>
      </trkpt>
      <trkpt lat="42.47986" lon="2.514">
        <ele>1432</ele>
        <time>2017-09-20T12:27:12Z</time>
      </trkpt>
      <trkpt lat="42.48004" lon="2.514">
        <ele>1429</ele>
        <time>2017-09-20T12:27:42Z</time>
      </trkpt>
      <trkpt lat="42.48017" lon="2.51399">
        <ele>1427</ele>
        <time>2017-09-20T12:28:18Z</time>
      </trkpt>
      <trkpt lat="42.48024" lon="2.51399">
        <ele>1426</ele>
        <time>2017-09-20T12:28:31Z</time>
      </trkpt>
      <trkpt lat="42.48029" lon="2.51401">
        <ele>1425</ele>
        <time>2017-09-20T12:28:38Z</time>
      </trkpt>
      <trkpt lat="42.48043" lon="2.51398">
        <ele>1423</ele>
        <time>2017-09-20T12:28:59Z</time>
      </trkpt>
      <trkpt lat="42.48047" lon="2.514">
        <ele>1422</ele>
        <time>2017-09-20T12:29:05Z</time>
      </trkpt>
      <trkpt lat="42.48053" lon="2.514">
        <ele>1422</ele>
        <time>2017-09-20T12:29:11Z</time>
      </trkpt>
      <trkpt lat="42.48063" lon="2.51403">
        <ele>1420</ele>
        <time>2017-09-20T12:29:22Z</time>
      </trkpt>
      <trkpt lat="42.48067" lon="2.51402">
        <ele>1419</ele>
        <time>2017-09-20T12:29:28Z</time>
      </trkpt>
      <trkpt lat="42.48077" lon="2.51402">
        <ele>1417</ele>
        <time>2017-09-20T12:29:40Z</time>
      </trkpt>
      <trkpt lat="42.48092" lon="2.51409">
        <ele>1414</ele>
        <time>2017-09-20T12:29:54Z</time>
      </trkpt>
      <trkpt lat="42.48096" lon="2.51413">
        <ele>1413</ele>
        <time>2017-09-20T12:30:02Z</time>
      </trkpt>
      <trkpt lat="42.48102" lon="2.51408">
        <ele>1413</ele>
        <time>2017-09-20T12:31:04Z</time>
      </trkpt>
      <trkpt lat="42.48105" lon="2.51405">
        <ele>1412</ele>
        <time>2017-09-20T12:31:21Z</time>
      </trkpt>
      <trkpt lat="42.48106" lon="2.51415">
        <ele>1411</ele>
        <time>2017-09-20T12:32:31Z</time>
      </trkpt>
      <trkpt lat="42.48091" lon="2.51425">
        <ele>1406</ele>
        <time>2017-09-20T12:32:56Z</time>
      </trkpt>
      <trkpt lat="42.48083" lon="2.51433">
        <ele>1403</ele>
        <time>2017-09-20T12:33:09Z</time>
      </trkpt>
      <trkpt lat="42.48081" lon="2.51439">
        <ele>1402</ele>
        <time>2017-09-20T12:33:13Z</time>
      </trkpt>
      <trkpt lat="42.48079" lon="2.51446">
        <ele>1400</ele>
        <time>2017-09-20T12:33:17Z</time>
      </trkpt>
      <trkpt lat="42.4808" lon="2.51453">
        <ele>1399</ele>
        <time>2017-09-20T12:33:23Z</time>
      </trkpt>
      <trkpt lat="42.48078" lon="2.5146">
        <ele>1397</ele>
        <time>2017-09-20T12:33:29Z</time>
      </trkpt>
      <trkpt lat="42.48069" lon="2.51467">
        <ele>1394</ele>
        <time>2017-09-20T12:33:37Z</time>
      </trkpt>
      <trkpt lat="42.48067" lon="2.51473">
        <ele>1393</ele>
        <time>2017-09-20T12:33:44Z</time>
      </trkpt>
      <trkpt lat="42.48058" lon="2.51478">
        <ele>1391</ele>
        <time>2017-09-20T12:33:54Z</time>
      </trkpt>
      <trkpt lat="42.48055" lon="2.51483">
        <ele>1390</ele>
        <time>2017-09-20T12:34:00Z</time>
      </trkpt>
      <trkpt lat="42.48051" lon="2.51487">
        <ele>1389</ele>
        <time>2017-09-20T12:34:05Z</time>
      </trkpt>
      <trkpt lat="42.48047" lon="2.51488">
        <ele>1389</ele>
        <time>2017-09-20T12:34:10Z</time>
      </trkpt>
      <trkpt lat="42.48039" lon="2.51492">
        <ele>1388</ele>
        <time>2017-09-20T12:34:29Z</time>
      </trkpt>
      <trkpt lat="42.48023" lon="2.51491">
        <ele>1385</ele>
        <time>2017-09-20T12:34:46Z</time>
      </trkpt>
      <trkpt lat="42.48019" lon="2.51492">
        <ele>1384</ele>
        <time>2017-09-20T12:34:51Z</time>
      </trkpt>
      <trkpt lat="42.48018" lon="2.51498">
        <ele>1382</ele>
        <time>2017-09-20T12:34:57Z</time>
      </trkpt>
      <trkpt lat="42.48019" lon="2.51505">
        <ele>1382</ele>
        <time>2017-09-20T12:35:03Z</time>
      </trkpt>
      <trkpt lat="42.48021" lon="2.51512">
        <ele>1381</ele>
        <time>2017-09-20T12:35:09Z</time>
      </trkpt>
      <trkpt lat="42.48022" lon="2.51519">
        <ele>1381</ele>
        <time>2017-09-20T12:35:17Z</time>
      </trkpt>
      <trkpt lat="42.48018" lon="2.51531">
        <ele>1380</ele>
        <time>2017-09-20T12:35:29Z</time>
      </trkpt>
      <trkpt lat="42.48015" lon="2.51536">
        <ele>1380</ele>
        <time>2017-09-20T12:35:34Z</time>
      </trkpt>
      <trkpt lat="42.48011" lon="2.51541">
        <ele>1380</ele>
        <time>2017-09-20T12:35:39Z</time>
      </trkpt>
      <trkpt lat="42.48007" lon="2.51543">
        <ele>1380</ele>
        <time>2017-09-20T12:35:46Z</time>
      </trkpt>
      <trkpt lat="42.48004" lon="2.51548">
        <ele>1381</ele>
        <time>2017-09-20T12:35:54Z</time>
      </trkpt>
      <trkpt lat="42.48001" lon="2.51554">
        <ele>1380</ele>
        <time>2017-09-20T12:36:01Z</time>
      </trkpt>
      <trkpt lat="42.48001" lon="2.51562">
        <ele>1377</ele>
        <time>2017-09-20T12:36:15Z</time>
      </trkpt>
      <trkpt lat="42.47997" lon="2.51572">
        <ele>1375</ele>
        <time>2017-09-20T12:36:29Z</time>
      </trkpt>
      <trkpt lat="42.47993" lon="2.51575">
        <ele>1375</ele>
        <time>2017-09-20T12:36:37Z</time>
      </trkpt>
      <trkpt lat="42.47992" lon="2.51582">
        <ele>1375</ele>
        <time>2017-09-20T12:37:05Z</time>
      </trkpt>
      <trkpt lat="42.47991" lon="2.51592">
        <ele>1374</ele>
        <time>2017-09-20T12:37:22Z</time>
      </trkpt>
      <trkpt lat="42.47995" lon="2.51596">
        <ele>1371</ele>
        <time>2017-09-20T12:37:44Z</time>
      </trkpt>
      <trkpt lat="42.47994" lon="2.51602">
        <ele>1365</ele>
        <time>2017-09-20T12:43:31Z</time>
      </trkpt>
      <trkpt lat="42.47993" lon="2.51609">
        <ele>1364</ele>
        <time>2017-09-20T12:43:35Z</time>
      </trkpt>
      <trkpt lat="42.47991" lon="2.51615">
        <ele>1363</ele>
        <time>2017-09-20T12:43:40Z</time>
      </trkpt>
      <trkpt lat="42.47988" lon="2.51619">
        <ele>1362</ele>
        <time>2017-09-20T12:43:44Z</time>
      </trkpt>
      <trkpt lat="42.47988" lon="2.51633">
        <ele>1361</ele>
        <time>2017-09-20T12:43:54Z</time>
      </trkpt>
      <trkpt lat="42.4799" lon="2.51639">
        <ele>1360</ele>
        <time>2017-09-20T12:43:59Z</time>
      </trkpt>
      <trkpt lat="42.47989" lon="2.51646">
        <ele>1359</ele>
        <time>2017-09-20T12:44:06Z</time>
      </trkpt>
      <trkpt lat="42.47986" lon="2.51651">
        <ele>1358</ele>
        <time>2017-09-20T12:44:11Z</time>
      </trkpt>
      <trkpt lat="42.47985" lon="2.51665">
        <ele>1357</ele>
        <time>2017-09-20T12:44:23Z</time>
      </trkpt>
      <trkpt lat="42.47982" lon="2.51671">
        <ele>1357</ele>
        <time>2017-09-20T12:44:28Z</time>
      </trkpt>
      <trkpt lat="42.47982" lon="2.51677">
        <ele>1356</ele>
        <time>2017-09-20T12:44:33Z</time>
      </trkpt>
      <trkpt lat="42.47979" lon="2.51684">
        <ele>1355</ele>
        <time>2017-09-20T12:44:40Z</time>
      </trkpt>
      <trkpt lat="42.47979" lon="2.51698">
        <ele>1353</ele>
        <time>2017-09-20T12:44:52Z</time>
      </trkpt>
      <trkpt lat="42.47975" lon="2.5171">
        <ele>1352</ele>
        <time>2017-09-20T12:45:05Z</time>
      </trkpt>
      <trkpt lat="42.47976" lon="2.51716">
        <ele>1351</ele>
        <time>2017-09-20T12:45:11Z</time>
      </trkpt>
      <trkpt lat="42.47966" lon="2.51735">
        <ele>1347</ele>
        <time>2017-09-20T12:45:40Z</time>
      </trkpt>
      <trkpt lat="42.47963" lon="2.5174">
        <ele>1345</ele>
        <time>2017-09-20T12:45:47Z</time>
      </trkpt>
      <trkpt lat="42.47959" lon="2.51744">
        <ele>1344</ele>
        <time>2017-09-20T12:45:56Z</time>
      </trkpt>
      <trkpt lat="42.47957" lon="2.5175">
        <ele>1343</ele>
        <time>2017-09-20T12:46:01Z</time>
      </trkpt>
      <trkpt lat="42.47953" lon="2.51754">
        <ele>1342</ele>
        <time>2017-09-20T12:46:07Z</time>
      </trkpt>
      <trkpt lat="42.47948" lon="2.51755">
        <ele>1342</ele>
        <time>2017-09-20T12:46:13Z</time>
      </trkpt>
      <trkpt lat="42.47946" lon="2.51761">
        <ele>1341</ele>
        <time>2017-09-20T12:46:20Z</time>
      </trkpt>
      <trkpt lat="42.4795" lon="2.51764">
        <ele>1340</ele>
        <time>2017-09-20T12:46:25Z</time>
      </trkpt>
      <trkpt lat="42.47954" lon="2.51768">
        <ele>1339</ele>
        <time>2017-09-20T12:46:30Z</time>
      </trkpt>
      <trkpt lat="42.47954" lon="2.51775">
        <ele>1338</ele>
        <time>2017-09-20T12:46:40Z</time>
      </trkpt>
      <trkpt lat="42.47951" lon="2.5178">
        <ele>1337</ele>
        <time>2017-09-20T12:46:47Z</time>
      </trkpt>
      <trkpt lat="42.47946" lon="2.51786">
        <ele>1335</ele>
        <time>2017-09-20T12:46:59Z</time>
      </trkpt>
      <trkpt lat="42.4794" lon="2.51796">
        <ele>1333</ele>
        <time>2017-09-20T12:47:05Z</time>
      </trkpt>
      <trkpt lat="42.47938" lon="2.51802">
        <ele>1332</ele>
        <time>2017-09-20T12:47:10Z</time>
      </trkpt>
      <trkpt lat="42.47937" lon="2.51808">
        <ele>1332</ele>
        <time>2017-09-20T12:47:15Z</time>
      </trkpt>
      <trkpt lat="42.47939" lon="2.51814">
        <ele>1331</ele>
        <time>2017-09-20T12:47:21Z</time>
      </trkpt>
      <trkpt lat="42.47939" lon="2.51821">
        <ele>1331</ele>
        <time>2017-09-20T12:47:27Z</time>
      </trkpt>
      <trkpt lat="42.47935" lon="2.51825">
        <ele>1331</ele>
        <time>2017-09-20T12:47:33Z</time>
      </trkpt>
      <trkpt lat="42.47933" lon="2.51834">
        <ele>1331</ele>
        <time>2017-09-20T12:47:47Z</time>
      </trkpt>
      <trkpt lat="42.47936" lon="2.51839">
        <ele>1330</ele>
        <time>2017-09-20T12:47:55Z</time>
      </trkpt>
      <trkpt lat="42.47937" lon="2.51847">
        <ele>1329</ele>
        <time>2017-09-20T12:48:01Z</time>
      </trkpt>
      <trkpt lat="42.47943" lon="2.51858">
        <ele>1328</ele>
        <time>2017-09-20T12:48:11Z</time>
      </trkpt>
      <trkpt lat="42.47944" lon="2.5187">
        <ele>1327</ele>
        <time>2017-09-20T12:48:23Z</time>
      </trkpt>
      <trkpt lat="42.47942" lon="2.51883">
        <ele>1325</ele>
        <time>2017-09-20T12:48:38Z</time>
      </trkpt>
      <trkpt lat="42.47938" lon="2.51896">
        <ele>1323</ele>
        <time>2017-09-20T12:48:50Z</time>
      </trkpt>
      <trkpt lat="42.47938" lon="2.51902">
        <ele>1323</ele>
        <time>2017-09-20T12:48:54Z</time>
      </trkpt>
      <trkpt lat="42.47939" lon="2.51909">
        <ele>1322</ele>
        <time>2017-09-20T12:48:59Z</time>
      </trkpt>
      <trkpt lat="42.47942" lon="2.51915">
        <ele>1322</ele>
        <time>2017-09-20T12:49:04Z</time>
      </trkpt>
      <trkpt lat="42.47943" lon="2.51921">
        <ele>1322</ele>
        <time>2017-09-20T12:49:09Z</time>
      </trkpt>
      <trkpt lat="42.47945" lon="2.51927">
        <ele>1321</ele>
        <time>2017-09-20T12:49:14Z</time>
      </trkpt>
      <trkpt lat="42.47946" lon="2.51933">
        <ele>1321</ele>
        <time>2017-09-20T12:49:20Z</time>
      </trkpt>
      <trkpt lat="42.47947" lon="2.5194">
        <ele>1321</ele>
        <time>2017-09-20T12:49:25Z</time>
      </trkpt>
      <trkpt lat="42.47946" lon="2.5196">
        <ele>1319</ele>
        <time>2017-09-20T12:49:43Z</time>
      </trkpt>
      <trkpt lat="42.47944" lon="2.51966">
        <ele>1319</ele>
        <time>2017-09-20T12:49:49Z</time>
      </trkpt>
      <trkpt lat="42.47948" lon="2.51979">
        <ele>1316</ele>
        <time>2017-09-20T12:50:04Z</time>
      </trkpt>
      <trkpt lat="42.47948" lon="2.51986">
        <ele>1315</ele>
        <time>2017-09-20T12:50:10Z</time>
      </trkpt>
      <trkpt lat="42.47951" lon="2.51992">
        <ele>1314</ele>
        <time>2017-09-20T12:50:14Z</time>
      </trkpt>
      <trkpt lat="42.47953" lon="2.51998">
        <ele>1313</ele>
        <time>2017-09-20T12:50:20Z</time>
      </trkpt>
      <trkpt lat="42.47951" lon="2.52004">
        <ele>1312</ele>
        <time>2017-09-20T12:50:26Z</time>
      </trkpt>
      <trkpt lat="42.47954" lon="2.52032">
        <ele>1308</ele>
        <time>2017-09-20T12:50:51Z</time>
      </trkpt>
      <trkpt lat="42.47959" lon="2.52044">
        <ele>1306</ele>
        <time>2017-09-20T12:51:04Z</time>
      </trkpt>
      <trkpt lat="42.47958" lon="2.52051">
        <ele>1306</ele>
        <time>2017-09-20T12:51:09Z</time>
      </trkpt>
      <trkpt lat="42.47961" lon="2.52056">
        <ele>1305</ele>
        <time>2017-09-20T12:51:13Z</time>
      </trkpt>
      <trkpt lat="42.47963" lon="2.52062">
        <ele>1305</ele>
        <time>2017-09-20T12:51:18Z</time>
      </trkpt>
      <trkpt lat="42.47962" lon="2.52075">
        <ele>1305</ele>
        <time>2017-09-20T12:51:38Z</time>
      </trkpt>
      <trkpt lat="42.47963" lon="2.52081">
        <ele>1305</ele>
        <time>2017-09-20T12:51:51Z</time>
      </trkpt>
      <trkpt lat="42.4796" lon="2.52086">
        <ele>1305</ele>
        <time>2017-09-20T12:52:37Z</time>
      </trkpt>
      <trkpt lat="42.47958" lon="2.52094">
        <ele>1305</ele>
        <time>2017-09-20T12:52:47Z</time>
      </trkpt>
      <trkpt lat="42.47955" lon="2.521">
        <ele>1305</ele>
        <time>2017-09-20T12:52:53Z</time>
      </trkpt>
      <trkpt lat="42.47952" lon="2.52105">
        <ele>1305</ele>
        <time>2017-09-20T12:52:59Z</time>
      </trkpt>
      <trkpt lat="42.47949" lon="2.52113">
        <ele>1306</ele>
        <time>2017-09-20T12:53:12Z</time>
      </trkpt>
      <trkpt lat="42.47945" lon="2.52127">
        <ele>1306</ele>
        <time>2017-09-20T12:53:23Z</time>
      </trkpt>
      <trkpt lat="42.47937" lon="2.52138">
        <ele>1306</ele>
        <time>2017-09-20T12:53:33Z</time>
      </trkpt>
      <trkpt lat="42.47935" lon="2.52144">
        <ele>1306</ele>
        <time>2017-09-20T12:53:37Z</time>
      </trkpt>
      <trkpt lat="42.47924" lon="2.52159">
        <ele>1305</ele>
        <time>2017-09-20T12:53:54Z</time>
      </trkpt>
      <trkpt lat="42.4792" lon="2.52162">
        <ele>1305</ele>
        <time>2017-09-20T12:54:00Z</time>
      </trkpt>
      <trkpt lat="42.47915" lon="2.52163">
        <ele>1306</ele>
        <time>2017-09-20T12:54:05Z</time>
      </trkpt>
      <trkpt lat="42.47904" lon="2.52173">
        <ele>1306</ele>
        <time>2017-09-20T12:54:23Z</time>
      </trkpt>
      <trkpt lat="42.47882" lon="2.52184">
        <ele>1308</ele>
        <time>2017-09-20T12:54:58Z</time>
      </trkpt>
      <trkpt lat="42.4785" lon="2.52213">
        <ele>1311</ele>
        <time>2017-09-20T12:55:40Z</time>
      </trkpt>
      <trkpt lat="42.47844" lon="2.52226">
        <ele>1312</ele>
        <time>2017-09-20T12:56:09Z</time>
      </trkpt>
      <trkpt lat="42.47833" lon="2.52248">
        <ele>1311</ele>
        <time>2017-09-20T12:56:36Z</time>
      </trkpt>
      <trkpt lat="42.47828" lon="2.52249">
        <ele>1311</ele>
        <time>2017-09-20T12:56:42Z</time>
      </trkpt>
      <trkpt lat="42.4782" lon="2.52258">
        <ele>1312</ele>
        <time>2017-09-20T12:56:54Z</time>
      </trkpt>
      <trkpt lat="42.47816" lon="2.52261">
        <ele>1313</ele>
        <time>2017-09-20T12:57:01Z</time>
      </trkpt>
      <trkpt lat="42.47813" lon="2.52266">
        <ele>1312</ele>
        <time>2017-09-20T12:57:07Z</time>
      </trkpt>
      <trkpt lat="42.47808" lon="2.52269">
        <ele>1311</ele>
        <time>2017-09-20T12:57:14Z</time>
      </trkpt>
      <trkpt lat="42.47801" lon="2.52278">
        <ele>1310</ele>
        <time>2017-09-20T12:57:24Z</time>
      </trkpt>
      <trkpt lat="42.47789" lon="2.52299">
        <ele>1307</ele>
        <time>2017-09-20T12:57:46Z</time>
      </trkpt>
      <trkpt lat="42.47775" lon="2.52308">
        <ele>1305</ele>
        <time>2017-09-20T12:58:01Z</time>
      </trkpt>
      <trkpt lat="42.47769" lon="2.52305">
        <ele>1305</ele>
        <time>2017-09-20T12:58:15Z</time>
      </trkpt>
      <trkpt lat="42.47764" lon="2.52308">
        <ele>1303</ele>
        <time>2017-09-20T12:58:22Z</time>
      </trkpt>
      <trkpt lat="42.47756" lon="2.52317">
        <ele>1301</ele>
        <time>2017-09-20T12:58:33Z</time>
      </trkpt>
      <trkpt lat="42.47751" lon="2.52317">
        <ele>1300</ele>
        <time>2017-09-20T12:58:38Z</time>
      </trkpt>
      <trkpt lat="42.47741" lon="2.52322">
        <ele>1299</ele>
        <time>2017-09-20T12:58:49Z</time>
      </trkpt>
      <trkpt lat="42.47737" lon="2.52324">
        <ele>1299</ele>
        <time>2017-09-20T12:58:55Z</time>
      </trkpt>
      <trkpt lat="42.47732" lon="2.52319">
        <ele>1300</ele>
        <time>2017-09-20T12:59:10Z</time>
      </trkpt>
      <trkpt lat="42.47718" lon="2.52324">
        <ele>1302</ele>
        <time>2017-09-20T12:59:29Z</time>
      </trkpt>
      <trkpt lat="42.47707" lon="2.52325">
        <ele>1304</ele>
        <time>2017-09-20T12:59:51Z</time>
      </trkpt>
      <trkpt lat="42.47703" lon="2.52327">
        <ele>1304</ele>
        <time>2017-09-20T12:59:59Z</time>
      </trkpt>
      <trkpt lat="42.47686" lon="2.52343">
        <ele>1302</ele>
        <time>2017-09-20T13:00:23Z</time>
      </trkpt>
      <trkpt lat="42.47676" lon="2.52348">
        <ele>1300</ele>
        <time>2017-09-20T13:00:34Z</time>
      </trkpt>
      <trkpt lat="42.47666" lon="2.52363">
        <ele>1297</ele>
        <time>2017-09-20T13:00:51Z</time>
      </trkpt>
      <trkpt lat="42.47643" lon="2.52369">
        <ele>1292</ele>
        <time>2017-09-20T13:01:23Z</time>
      </trkpt>
      <trkpt lat="42.4763" lon="2.52377">
        <ele>1290</ele>
        <time>2017-09-20T13:01:37Z</time>
      </trkpt>
      <trkpt lat="42.47625" lon="2.52376">
        <ele>1290</ele>
        <time>2017-09-20T13:01:44Z</time>
      </trkpt>
      <trkpt lat="42.47621" lon="2.52373">
        <ele>1289</ele>
        <time>2017-09-20T13:01:49Z</time>
      </trkpt>
      <trkpt lat="42.47612" lon="2.5237">
        <ele>1289</ele>
        <time>2017-09-20T13:02:01Z</time>
      </trkpt>
      <trkpt lat="42.47607" lon="2.5237">
        <ele>1289</ele>
        <time>2017-09-20T13:02:07Z</time>
      </trkpt>
      <trkpt lat="42.47597" lon="2.52373">
        <ele>1289</ele>
        <time>2017-09-20T13:02:18Z</time>
      </trkpt>
      <trkpt lat="42.47593" lon="2.5237">
        <ele>1288</ele>
        <time>2017-09-20T13:02:27Z</time>
      </trkpt>
      <trkpt lat="42.47584" lon="2.52374">
        <ele>1288</ele>
        <time>2017-09-20T13:02:37Z</time>
      </trkpt>
      <trkpt lat="42.47579" lon="2.52374">
        <ele>1288</ele>
        <time>2017-09-20T13:02:42Z</time>
      </trkpt>
      <trkpt lat="42.47574" lon="2.52375">
        <ele>1287</ele>
        <time>2017-09-20T13:02:49Z</time>
      </trkpt>
      <trkpt lat="42.4757" lon="2.52378">
        <ele>1287</ele>
        <time>2017-09-20T13:02:56Z</time>
      </trkpt>
      <trkpt lat="42.47565" lon="2.52378">
        <ele>1287</ele>
        <time>2017-09-20T13:03:02Z</time>
      </trkpt>
      <trkpt lat="42.47558" lon="2.5238">
        <ele>1286</ele>
        <time>2017-09-20T13:03:15Z</time>
      </trkpt>
      <trkpt lat="42.4755" lon="2.52382">
        <ele>1286</ele>
        <time>2017-09-20T13:03:28Z</time>
      </trkpt>
      <trkpt lat="42.47545" lon="2.52384">
        <ele>1286</ele>
        <time>2017-09-20T13:03:34Z</time>
      </trkpt>
      <trkpt lat="42.47544" lon="2.5239">
        <ele>1286</ele>
        <time>2017-09-20T13:03:41Z</time>
      </trkpt>
      <trkpt lat="42.47542" lon="2.52396">
        <ele>1285</ele>
        <time>2017-09-20T13:03:51Z</time>
      </trkpt>
      <trkpt lat="42.47544" lon="2.52412">
        <ele>1282</ele>
        <time>2017-09-20T13:04:10Z</time>
      </trkpt>
      <trkpt lat="42.47543" lon="2.52418">
        <ele>1281</ele>
        <time>2017-09-20T13:04:16Z</time>
      </trkpt>
      <trkpt lat="42.47539" lon="2.52422">
        <ele>1280</ele>
        <time>2017-09-20T13:04:21Z</time>
      </trkpt>
      <trkpt lat="42.47536" lon="2.52427">
        <ele>1279</ele>
        <time>2017-09-20T13:04:25Z</time>
      </trkpt>
      <trkpt lat="42.47531" lon="2.52444">
        <ele>1276</ele>
        <time>2017-09-20T13:04:48Z</time>
      </trkpt>
      <trkpt lat="42.47518" lon="2.52457">
        <ele>1273</ele>
        <time>2017-09-20T13:05:14Z</time>
      </trkpt>
      <trkpt lat="42.47513" lon="2.5246">
        <ele>1272</ele>
        <time>2017-09-20T13:05:23Z</time>
      </trkpt>
      <trkpt lat="42.47511" lon="2.52473">
        <ele>1269</ele>
        <time>2017-09-20T13:05:40Z</time>
      </trkpt>
      <trkpt lat="42.47509" lon="2.52478">
        <ele>1267</ele>
        <time>2017-09-20T13:05:46Z</time>
      </trkpt>
      <trkpt lat="42.47503" lon="2.52474">
        <ele>1266</ele>
        <time>2017-09-20T13:06:00Z</time>
      </trkpt>
      <trkpt lat="42.47493" lon="2.52476">
        <ele>1263</ele>
        <time>2017-09-20T13:06:13Z</time>
      </trkpt>
      <trkpt lat="42.47484" lon="2.5248">
        <ele>1260</ele>
        <time>2017-09-20T13:06:26Z</time>
      </trkpt>
      <trkpt lat="42.47471" lon="2.52473">
        <ele>1256</ele>
        <time>2017-09-20T13:06:44Z</time>
      </trkpt>
      <trkpt lat="42.47466" lon="2.52473">
        <ele>1255</ele>
        <time>2017-09-20T13:06:51Z</time>
      </trkpt>
      <trkpt lat="42.47448" lon="2.52485">
        <ele>1251</ele>
        <time>2017-09-20T13:07:17Z</time>
      </trkpt>
      <trkpt lat="42.47445" lon="2.52502">
        <ele>1243</ele>
        <time>2017-09-20T13:07:55Z</time>
      </trkpt>
      <trkpt lat="42.47441" lon="2.52514">
        <ele>1239</ele>
        <time>2017-09-20T13:08:28Z</time>
      </trkpt>
      <trkpt lat="42.47431" lon="2.52513">
        <ele>1234</ele>
        <time>2017-09-20T13:08:38Z</time>
      </trkpt>
      <trkpt lat="42.47423" lon="2.52508">
        <ele>1230</ele>
        <time>2017-09-20T13:09:09Z</time>
      </trkpt>
      <trkpt lat="42.47419" lon="2.52504">
        <ele>1230</ele>
        <time>2017-09-20T13:09:19Z</time>
      </trkpt>
      <trkpt lat="42.47419" lon="2.52506">
        <ele>1227</ele>
        <time>2017-09-20T13:10:20Z</time>
      </trkpt>
      <trkpt lat="42.47413" lon="2.52504">
        <ele>1226</ele>
        <time>2017-09-20T13:11:11Z</time>
      </trkpt>
      <trkpt lat="42.47414" lon="2.52511">
        <ele>1227</ele>
        <time>2017-09-20T13:11:47Z</time>
      </trkpt>
      <trkpt lat="42.47414" lon="2.52517">
        <ele>1227</ele>
        <time>2017-09-20T13:11:56Z</time>
      </trkpt>
      <trkpt lat="42.47417" lon="2.52539">
        <ele>1233</ele>
        <time>2017-09-20T13:12:23Z</time>
      </trkpt>
      <trkpt lat="42.47417" lon="2.52552">
        <ele>1227</ele>
        <time>2017-09-20T13:12:36Z</time>
      </trkpt>
      <trkpt lat="42.47418" lon="2.52559">
        <ele>1226</ele>
        <time>2017-09-20T13:12:42Z</time>
      </trkpt>
      <trkpt lat="42.47418" lon="2.52566">
        <ele>1226</ele>
        <time>2017-09-20T13:12:48Z</time>
      </trkpt>
      <trkpt lat="42.4742" lon="2.52571">
        <ele>1226</ele>
        <time>2017-09-20T13:12:57Z</time>
      </trkpt>
      <trkpt lat="42.47417" lon="2.52576">
        <ele>1226</ele>
        <time>2017-09-20T13:13:02Z</time>
      </trkpt>
      <trkpt lat="42.47414" lon="2.52582">
        <ele>1226</ele>
        <time>2017-09-20T13:13:07Z</time>
      </trkpt>
      <trkpt lat="42.47415" lon="2.52588">
        <ele>1227</ele>
        <time>2017-09-20T13:13:13Z</time>
      </trkpt>
      <trkpt lat="42.47413" lon="2.52594">
        <ele>1228</ele>
        <time>2017-09-20T13:13:20Z</time>
      </trkpt>
      <trkpt lat="42.47413" lon="2.52601">
        <ele>1228</ele>
        <time>2017-09-20T13:13:26Z</time>
      </trkpt>
      <trkpt lat="42.47418" lon="2.52607">
        <ele>1229</ele>
        <time>2017-09-20T13:13:41Z</time>
      </trkpt>
      <trkpt lat="42.47418" lon="2.52613">
        <ele>1230</ele>
        <time>2017-09-20T13:13:46Z</time>
      </trkpt>
      <trkpt lat="42.47424" lon="2.52623">
        <ele>1230</ele>
        <time>2017-09-20T13:13:55Z</time>
      </trkpt>
      <trkpt lat="42.47429" lon="2.52634">
        <ele>1230</ele>
        <time>2017-09-20T13:14:04Z</time>
      </trkpt>
      <trkpt lat="42.47434" lon="2.52637">
        <ele>1231</ele>
        <time>2017-09-20T13:14:10Z</time>
      </trkpt>
      <trkpt lat="42.47438" lon="2.52641">
        <ele>1231</ele>
        <time>2017-09-20T13:14:16Z</time>
      </trkpt>
      <trkpt lat="42.47439" lon="2.52648">
        <ele>1232</ele>
        <time>2017-09-20T13:14:25Z</time>
      </trkpt>
      <trkpt lat="42.47438" lon="2.52655">
        <ele>1233</ele>
        <time>2017-09-20T13:14:31Z</time>
      </trkpt>
      <trkpt lat="42.47441" lon="2.5266">
        <ele>1233</ele>
        <time>2017-09-20T13:14:38Z</time>
      </trkpt>
      <trkpt lat="42.47442" lon="2.52667">
        <ele>1234</ele>
        <time>2017-09-20T13:14:43Z</time>
      </trkpt>
      <trkpt lat="42.47451" lon="2.52688">
        <ele>1236</ele>
        <time>2017-09-20T13:15:05Z</time>
      </trkpt>
      <trkpt lat="42.47452" lon="2.52694">
        <ele>1236</ele>
        <time>2017-09-20T13:15:10Z</time>
      </trkpt>
      <trkpt lat="42.47457" lon="2.52705">
        <ele>1236</ele>
        <time>2017-09-20T13:15:22Z</time>
      </trkpt>
      <trkpt lat="42.47461" lon="2.5271">
        <ele>1237</ele>
        <time>2017-09-20T13:15:29Z</time>
      </trkpt>
      <trkpt lat="42.47464" lon="2.52716">
        <ele>1237</ele>
        <time>2017-09-20T13:15:37Z</time>
      </trkpt>
      <trkpt lat="42.47463" lon="2.52723">
        <ele>1238</ele>
        <time>2017-09-20T13:15:44Z</time>
      </trkpt>
      <trkpt lat="42.47466" lon="2.52728">
        <ele>1238</ele>
        <time>2017-09-20T13:15:48Z</time>
      </trkpt>
      <trkpt lat="42.47469" lon="2.52734">
        <ele>1238</ele>
        <time>2017-09-20T13:15:53Z</time>
      </trkpt>
      <trkpt lat="42.47471" lon="2.52747">
        <ele>1239</ele>
        <time>2017-09-20T13:16:03Z</time>
      </trkpt>
      <trkpt lat="42.47471" lon="2.52753">
        <ele>1240</ele>
        <time>2017-09-20T13:16:09Z</time>
      </trkpt>
      <trkpt lat="42.47472" lon="2.5276">
        <ele>1241</ele>
        <time>2017-09-20T13:16:16Z</time>
      </trkpt>
      <trkpt lat="42.47466" lon="2.52771">
        <ele>1242</ele>
        <time>2017-09-20T13:16:29Z</time>
      </trkpt>
      <trkpt lat="42.47463" lon="2.52776">
        <ele>1243</ele>
        <time>2017-09-20T13:18:51Z</time>
      </trkpt>
      <trkpt lat="42.47464" lon="2.52783">
        <ele>1243</ele>
        <time>2017-09-20T13:19:39Z</time>
      </trkpt>
      <trkpt lat="42.4747" lon="2.52781">
        <ele>1243</ele>
        <time>2017-09-20T13:19:45Z</time>
      </trkpt>
      <trkpt lat="42.47475" lon="2.52781">
        <ele>1242</ele>
        <time>2017-09-20T13:19:50Z</time>
      </trkpt>
      <trkpt lat="42.47479" lon="2.52784">
        <ele>1241</ele>
        <time>2017-09-20T13:19:59Z</time>
      </trkpt>
      <trkpt lat="42.47484" lon="2.52785">
        <ele>1240</ele>
        <time>2017-09-20T13:20:06Z</time>
      </trkpt>
      <trkpt lat="42.47492" lon="2.52787">
        <ele>1240</ele>
        <time>2017-09-20T13:21:52Z</time>
      </trkpt>
      <trkpt lat="42.47496" lon="2.52792">
        <ele>1239</ele>
        <time>2017-09-20T13:22:00Z</time>
      </trkpt>
      <trkpt lat="42.475" lon="2.52792">
        <ele>1238</ele>
        <time>2017-09-20T13:22:05Z</time>
      </trkpt>
      <trkpt lat="42.47504" lon="2.52788">
        <ele>1238</ele>
        <time>2017-09-20T13:22:10Z</time>
      </trkpt>
      <trkpt lat="42.47509" lon="2.52786">
        <ele>1238</ele>
        <time>2017-09-20T13:22:14Z</time>
      </trkpt>
      <trkpt lat="42.47513" lon="2.52781">
        <ele>1237</ele>
        <time>2017-09-20T13:22:19Z</time>
      </trkpt>
      <trkpt lat="42.47518" lon="2.52779">
        <ele>1237</ele>
        <time>2017-09-20T13:22:25Z</time>
      </trkpt>
      <trkpt lat="42.47523" lon="2.52777">
        <ele>1236</ele>
        <time>2017-09-20T13:22:33Z</time>
      </trkpt>
      <trkpt lat="42.47527" lon="2.52778">
        <ele>1235</ele>
        <time>2017-09-20T13:23:11Z</time>
      </trkpt>
      <trkpt lat="42.47535" lon="2.52786">
        <ele>1232</ele>
        <time>2017-09-20T13:23:22Z</time>
      </trkpt>
      <trkpt lat="42.4754" lon="2.52788">
        <ele>1231</ele>
        <time>2017-09-20T13:23:25Z</time>
      </trkpt>
      <trkpt lat="42.47546" lon="2.528">
        <ele>1230</ele>
        <time>2017-09-20T13:23:34Z</time>
      </trkpt>
      <trkpt lat="42.47545" lon="2.52807">
        <ele>1230</ele>
        <time>2017-09-20T13:23:42Z</time>
      </trkpt>
      <trkpt lat="42.47542" lon="2.52814">
        <ele>1230</ele>
        <time>2017-09-20T13:23:48Z</time>
      </trkpt>
      <trkpt lat="42.4754" lon="2.5282">
        <ele>1230</ele>
        <time>2017-09-20T13:23:52Z</time>
      </trkpt>
      <trkpt lat="42.47538" lon="2.52834">
        <ele>1228</ele>
        <time>2017-09-20T13:24:02Z</time>
      </trkpt>
      <trkpt lat="42.47536" lon="2.52838">
        <ele>1227</ele>
        <time>2017-09-20T13:24:08Z</time>
      </trkpt>
      <trkpt lat="42.47531" lon="2.52842">
        <ele>1227</ele>
        <time>2017-09-20T13:24:13Z</time>
      </trkpt>
      <trkpt lat="42.47526" lon="2.52844">
        <ele>1225</ele>
        <time>2017-09-20T13:24:19Z</time>
      </trkpt>
      <trkpt lat="42.47514" lon="2.52862">
        <ele>1224</ele>
        <time>2017-09-20T13:24:56Z</time>
      </trkpt>
      <trkpt lat="42.47511" lon="2.52868">
        <ele>1223</ele>
        <time>2017-09-20T13:25:16Z</time>
      </trkpt>
      <trkpt lat="42.47514" lon="2.52869">
        <ele>1221</ele>
        <time>2017-09-20T13:25:42Z</time>
      </trkpt>
      <trkpt lat="42.4752" lon="2.52868">
        <ele>1221</ele>
        <time>2017-09-20T13:25:47Z</time>
      </trkpt>
      <trkpt lat="42.47524" lon="2.52866">
        <ele>1219</ele>
        <time>2017-09-20T13:25:51Z</time>
      </trkpt>
      <trkpt lat="42.47529" lon="2.52868">
        <ele>1219</ele>
        <time>2017-09-20T13:25:55Z</time>
      </trkpt>
      <trkpt lat="42.47533" lon="2.52868">
        <ele>1217</ele>
        <time>2017-09-20T13:25:59Z</time>
      </trkpt>
      <trkpt lat="42.47538" lon="2.52869">
        <ele>1216</ele>
        <time>2017-09-20T13:26:05Z</time>
      </trkpt>
      <trkpt lat="42.47551" lon="2.52861">
        <ele>1213</ele>
        <time>2017-09-20T13:26:17Z</time>
      </trkpt>
      <trkpt lat="42.47559" lon="2.52858">
        <ele>1212</ele>
        <time>2017-09-20T13:26:24Z</time>
      </trkpt>
      <trkpt lat="42.47574" lon="2.52843">
        <ele>1208</ele>
        <time>2017-09-20T13:26:45Z</time>
      </trkpt>
      <trkpt lat="42.47579" lon="2.52847">
        <ele>1207</ele>
        <time>2017-09-20T13:27:04Z</time>
      </trkpt>
      <trkpt lat="42.47576" lon="2.52855">
        <ele>1206</ele>
        <time>2017-09-20T13:27:13Z</time>
      </trkpt>
      <trkpt lat="42.47574" lon="2.52862">
        <ele>1205</ele>
        <time>2017-09-20T13:27:18Z</time>
      </trkpt>
      <trkpt lat="42.47574" lon="2.52875">
        <ele>1203</ele>
        <time>2017-09-20T13:27:27Z</time>
      </trkpt>
      <trkpt lat="42.47567" lon="2.52886">
        <ele>1201</ele>
        <time>2017-09-20T13:27:36Z</time>
      </trkpt>
      <trkpt lat="42.47566" lon="2.52892">
        <ele>1200</ele>
        <time>2017-09-20T13:27:42Z</time>
      </trkpt>
      <trkpt lat="42.47562" lon="2.52898">
        <ele>1198</ele>
        <time>2017-09-20T13:27:49Z</time>
      </trkpt>
      <trkpt lat="42.47554" lon="2.52907">
        <ele>1196</ele>
        <time>2017-09-20T13:28:01Z</time>
      </trkpt>
      <trkpt lat="42.4754" lon="2.52929">
        <ele>1193</ele>
        <time>2017-09-20T13:28:19Z</time>
      </trkpt>
      <trkpt lat="42.47532" lon="2.52937">
        <ele>1191</ele>
        <time>2017-09-20T13:28:31Z</time>
      </trkpt>
      <trkpt lat="42.47528" lon="2.5294">
        <ele>1190</ele>
        <time>2017-09-20T13:28:37Z</time>
      </trkpt>
      <trkpt lat="42.47525" lon="2.52945">
        <ele>1189</ele>
        <time>2017-09-20T13:28:41Z</time>
      </trkpt>
      <trkpt lat="42.4752" lon="2.52949">
        <ele>1188</ele>
        <time>2017-09-20T13:28:48Z</time>
      </trkpt>
      <trkpt lat="42.47515" lon="2.52951">
        <ele>1187</ele>
        <time>2017-09-20T13:28:54Z</time>
      </trkpt>
      <trkpt lat="42.47509" lon="2.5296">
        <ele>1185</ele>
        <time>2017-09-20T13:29:03Z</time>
      </trkpt>
      <trkpt lat="42.4749" lon="2.52974">
        <ele>1181</ele>
        <time>2017-09-20T13:29:37Z</time>
      </trkpt>
      <trkpt lat="42.47476" lon="2.52987">
        <ele>1174</ele>
        <time>2017-09-20T13:30:18Z</time>
      </trkpt>
      <trkpt lat="42.47467" lon="2.52991">
        <ele>1173</ele>
        <time>2017-09-20T13:30:27Z</time>
      </trkpt>
      <trkpt lat="42.47461" lon="2.53001">
        <ele>1171</ele>
        <time>2017-09-20T13:30:39Z</time>
      </trkpt>
      <trkpt lat="42.47458" lon="2.53007">
        <ele>1171</ele>
        <time>2017-09-20T13:30:43Z</time>
      </trkpt>
      <trkpt lat="42.47455" lon="2.53012">
        <ele>1170</ele>
        <time>2017-09-20T13:30:50Z</time>
      </trkpt>
      <trkpt lat="42.47449" lon="2.53012">
        <ele>1170</ele>
        <time>2017-09-20T13:30:56Z</time>
      </trkpt>
      <trkpt lat="42.47445" lon="2.53013">
        <ele>1169</ele>
        <time>2017-09-20T13:31:01Z</time>
      </trkpt>
      <trkpt lat="42.4744" lon="2.53016">
        <ele>1168</ele>
        <time>2017-09-20T13:31:07Z</time>
      </trkpt>
      <trkpt lat="42.47435" lon="2.53014">
        <ele>1167</ele>
        <time>2017-09-20T13:31:13Z</time>
      </trkpt>
      <trkpt lat="42.47413" lon="2.53028">
        <ele>1164</ele>
        <time>2017-09-20T13:31:47Z</time>
      </trkpt>
      <trkpt lat="42.47396" lon="2.53041">
        <ele>1160</ele>
        <time>2017-09-20T13:32:22Z</time>
      </trkpt>
      <trkpt lat="42.47391" lon="2.53043">
        <ele>1159</ele>
        <time>2017-09-20T13:32:28Z</time>
      </trkpt>
      <trkpt lat="42.47385" lon="2.53049">
        <ele>1157</ele>
        <time>2017-09-20T13:32:44Z</time>
      </trkpt>
      <trkpt lat="42.47383" lon="2.53055">
        <ele>1156</ele>
        <time>2017-09-20T13:33:17Z</time>
      </trkpt>
      <trkpt lat="42.47384" lon="2.53064">
        <ele>1155</ele>
        <time>2017-09-20T13:33:31Z</time>
      </trkpt>
      <trkpt lat="42.47379" lon="2.53092">
        <ele>1151</ele>
        <time>2017-09-20T13:34:07Z</time>
      </trkpt>
      <trkpt lat="42.47379" lon="2.53102">
        <ele>1149</ele>
        <time>2017-09-20T13:34:21Z</time>
      </trkpt>
      <trkpt lat="42.47386" lon="2.53121">
        <ele>1146</ele>
        <time>2017-09-20T13:34:40Z</time>
      </trkpt>
      <trkpt lat="42.47385" lon="2.53128">
        <ele>1144</ele>
        <time>2017-09-20T13:34:46Z</time>
      </trkpt>
      <trkpt lat="42.47376" lon="2.53145">
        <ele>1142</ele>
        <time>2017-09-20T13:35:03Z</time>
      </trkpt>
      <trkpt lat="42.47373" lon="2.53149">
        <ele>1141</ele>
        <time>2017-09-20T13:35:08Z</time>
      </trkpt>
      <trkpt lat="42.47368" lon="2.53152">
        <ele>1141</ele>
        <time>2017-09-20T13:35:13Z</time>
      </trkpt>
      <trkpt lat="42.47365" lon="2.53156">
        <ele>1140</ele>
        <time>2017-09-20T13:35:19Z</time>
      </trkpt>
      <trkpt lat="42.47364" lon="2.53163">
        <ele>1140</ele>
        <time>2017-09-20T13:35:27Z</time>
      </trkpt>
      <trkpt lat="42.47365" lon="2.53172">
        <ele>1138</ele>
        <time>2017-09-20T13:35:40Z</time>
      </trkpt>
      <trkpt lat="42.47369" lon="2.53177">
        <ele>1136</ele>
        <time>2017-09-20T13:35:49Z</time>
      </trkpt>
      <trkpt lat="42.47366" lon="2.53183">
        <ele>1136</ele>
        <time>2017-09-20T13:35:56Z</time>
      </trkpt>
      <trkpt lat="42.47362" lon="2.53186">
        <ele>1135</ele>
        <time>2017-09-20T13:36:01Z</time>
      </trkpt>
      <trkpt lat="42.4736" lon="2.53193">
        <ele>1134</ele>
        <time>2017-09-20T13:36:05Z</time>
      </trkpt>
      <trkpt lat="42.47356" lon="2.53197">
        <ele>1133</ele>
        <time>2017-09-20T13:36:10Z</time>
      </trkpt>
      <trkpt lat="42.4735" lon="2.53208">
        <ele>1131</ele>
        <time>2017-09-20T13:36:21Z</time>
      </trkpt>
      <trkpt lat="42.47339" lon="2.53211">
        <ele>1128</ele>
        <time>2017-09-20T13:36:39Z</time>
      </trkpt>
      <trkpt lat="42.47335" lon="2.53216">
        <ele>1128</ele>
        <time>2017-09-20T13:36:43Z</time>
      </trkpt>
      <trkpt lat="42.47331" lon="2.5322">
        <ele>1127</ele>
        <time>2017-09-20T13:36:47Z</time>
      </trkpt>
      <trkpt lat="42.47327" lon="2.53225">
        <ele>1127</ele>
        <time>2017-09-20T13:36:50Z</time>
      </trkpt>
      <trkpt lat="42.47319" lon="2.53233">
        <ele>1126</ele>
        <time>2017-09-20T13:37:01Z</time>
      </trkpt>
      <trkpt lat="42.47315" lon="2.53229">
        <ele>1124</ele>
        <time>2017-09-20T13:37:19Z</time>
      </trkpt>
      <trkpt lat="42.47313" lon="2.53234">
        <ele>1124</ele>
        <time>2017-09-20T13:37:24Z</time>
      </trkpt>
      <trkpt lat="42.47311" lon="2.53241">
        <ele>1124</ele>
        <time>2017-09-20T13:37:29Z</time>
      </trkpt>
      <trkpt lat="42.47312" lon="2.53247">
        <ele>1124</ele>
        <time>2017-09-20T13:37:33Z</time>
      </trkpt>
      <trkpt lat="42.47317" lon="2.53259">
        <ele>1123</ele>
        <time>2017-09-20T13:37:45Z</time>
      </trkpt>
      <trkpt lat="42.4732" lon="2.53265">
        <ele>1122</ele>
        <time>2017-09-20T13:37:52Z</time>
      </trkpt>
      <trkpt lat="42.47323" lon="2.5327">
        <ele>1121</ele>
        <time>2017-09-20T13:37:59Z</time>
      </trkpt>
      <trkpt lat="42.47327" lon="2.53283">
        <ele>1122</ele>
        <time>2017-09-20T13:38:14Z</time>
      </trkpt>
      <trkpt lat="42.47327" lon="2.53289">
        <ele>1121</ele>
        <time>2017-09-20T13:38:19Z</time>
      </trkpt>
      <trkpt lat="42.4733" lon="2.53295">
        <ele>1121</ele>
        <time>2017-09-20T13:38:24Z</time>
      </trkpt>
      <trkpt lat="42.47328" lon="2.53302">
        <ele>1120</ele>
        <time>2017-09-20T13:38:30Z</time>
      </trkpt>
      <trkpt lat="42.47329" lon="2.53309">
        <ele>1119</ele>
        <time>2017-09-20T13:38:37Z</time>
      </trkpt>
      <trkpt lat="42.47328" lon="2.53316">
        <ele>1118</ele>
        <time>2017-09-20T13:38:41Z</time>
      </trkpt>
      <trkpt lat="42.47328" lon="2.53322">
        <ele>1117</ele>
        <time>2017-09-20T13:38:48Z</time>
      </trkpt>
      <trkpt lat="42.47323" lon="2.53334">
        <ele>1115</ele>
        <time>2017-09-20T13:38:58Z</time>
      </trkpt>
      <trkpt lat="42.47321" lon="2.5334">
        <ele>1115</ele>
        <time>2017-09-20T13:39:02Z</time>
      </trkpt>
      <trkpt lat="42.4732" lon="2.53347">
        <ele>1114</ele>
        <time>2017-09-20T13:39:07Z</time>
      </trkpt>
      <trkpt lat="42.47322" lon="2.53354">
        <ele>1113</ele>
        <time>2017-09-20T13:39:13Z</time>
      </trkpt>
      <trkpt lat="42.47321" lon="2.5336">
        <ele>1112</ele>
        <time>2017-09-20T13:39:19Z</time>
      </trkpt>
      <trkpt lat="42.47318" lon="2.53367">
        <ele>1111</ele>
        <time>2017-09-20T13:39:25Z</time>
      </trkpt>
      <trkpt lat="42.47319" lon="2.53373">
        <ele>1109</ele>
        <time>2017-09-20T13:39:33Z</time>
      </trkpt>
      <trkpt lat="42.47314" lon="2.53406">
        <ele>1104</ele>
        <time>2017-09-20T13:40:03Z</time>
      </trkpt>
      <trkpt lat="42.47312" lon="2.53411">
        <ele>1102</ele>
        <time>2017-09-20T13:40:09Z</time>
      </trkpt>
      <trkpt lat="42.47308" lon="2.53425">
        <ele>1100</ele>
        <time>2017-09-20T13:40:22Z</time>
      </trkpt>
      <trkpt lat="42.47305" lon="2.5343">
        <ele>1100</ele>
        <time>2017-09-20T13:40:27Z</time>
      </trkpt>
      <trkpt lat="42.47303" lon="2.53444">
        <ele>1098</ele>
        <time>2017-09-20T13:40:41Z</time>
      </trkpt>
      <trkpt lat="42.47301" lon="2.53449">
        <ele>1097</ele>
        <time>2017-09-20T13:40:47Z</time>
      </trkpt>
      <trkpt lat="42.47299" lon="2.53469">
        <ele>1094</ele>
        <time>2017-09-20T13:41:09Z</time>
      </trkpt>
      <trkpt lat="42.47292" lon="2.53479">
        <ele>1092</ele>
        <time>2017-09-20T13:41:20Z</time>
      </trkpt>
      <trkpt lat="42.47292" lon="2.53485">
        <ele>1091</ele>
        <time>2017-09-20T13:41:26Z</time>
      </trkpt>
      <trkpt lat="42.47296" lon="2.53496">
        <ele>1089</ele>
        <time>2017-09-20T13:41:37Z</time>
      </trkpt>
      <trkpt lat="42.47296" lon="2.53503">
        <ele>1088</ele>
        <time>2017-09-20T13:41:44Z</time>
      </trkpt>
      <trkpt lat="42.47294" lon="2.53509">
        <ele>1087</ele>
        <time>2017-09-20T13:41:50Z</time>
      </trkpt>
      <trkpt lat="42.47293" lon="2.53529">
        <ele>1084</ele>
        <time>2017-09-20T13:42:13Z</time>
      </trkpt>
      <trkpt lat="42.47291" lon="2.53535">
        <ele>1083</ele>
        <time>2017-09-20T13:42:19Z</time>
      </trkpt>
      <trkpt lat="42.47288" lon="2.53553">
        <ele>1080</ele>
        <time>2017-09-20T13:42:33Z</time>
      </trkpt>
      <trkpt lat="42.47284" lon="2.53565">
        <ele>1079</ele>
        <time>2017-09-20T13:42:42Z</time>
      </trkpt>
      <trkpt lat="42.47284" lon="2.53571">
        <ele>1078</ele>
        <time>2017-09-20T13:42:51Z</time>
      </trkpt>
      <trkpt lat="42.47279" lon="2.53603">
        <ele>1073</ele>
        <time>2017-09-20T13:43:23Z</time>
      </trkpt>
      <trkpt lat="42.47273" lon="2.53615">
        <ele>1071</ele>
        <time>2017-09-20T13:43:32Z</time>
      </trkpt>
      <trkpt lat="42.4727" lon="2.53635">
        <ele>1069</ele>
        <time>2017-09-20T13:43:48Z</time>
      </trkpt>
      <trkpt lat="42.47271" lon="2.53649">
        <ele>1067</ele>
        <time>2017-09-20T13:44:00Z</time>
      </trkpt>
      <trkpt lat="42.47273" lon="2.53655">
        <ele>1066</ele>
        <time>2017-09-20T13:44:06Z</time>
      </trkpt>
      <trkpt lat="42.47274" lon="2.53662">
        <ele>1065</ele>
        <time>2017-09-20T13:44:12Z</time>
      </trkpt>
      <trkpt lat="42.47276" lon="2.53667">
        <ele>1064</ele>
        <time>2017-09-20T13:44:18Z</time>
      </trkpt>
      <trkpt lat="42.47276" lon="2.53674">
        <ele>1062</ele>
        <time>2017-09-20T13:44:25Z</time>
      </trkpt>
      <trkpt lat="42.47278" lon="2.53701">
        <ele>1057</ele>
        <time>2017-09-20T13:44:46Z</time>
      </trkpt>
      <trkpt lat="42.4728" lon="2.53706">
        <ele>1056</ele>
        <time>2017-09-20T13:44:51Z</time>
      </trkpt>
      <trkpt lat="42.47281" lon="2.53712">
        <ele>1055</ele>
        <time>2017-09-20T13:44:56Z</time>
      </trkpt>
      <trkpt lat="42.47281" lon="2.53719">
        <ele>1054</ele>
        <time>2017-09-20T13:45:04Z</time>
      </trkpt>
      <trkpt lat="42.47283" lon="2.53724">
        <ele>1053</ele>
        <time>2017-09-20T13:45:10Z</time>
      </trkpt>
      <trkpt lat="42.47282" lon="2.53731">
        <ele>1052</ele>
        <time>2017-09-20T13:45:15Z</time>
      </trkpt>
      <trkpt lat="42.4728" lon="2.53737">
        <ele>1052</ele>
        <time>2017-09-20T13:45:21Z</time>
      </trkpt>
      <trkpt lat="42.47279" lon="2.53743">
        <ele>1052</ele>
        <time>2017-09-20T13:45:26Z</time>
      </trkpt>
      <trkpt lat="42.47274" lon="2.53748">
        <ele>1052</ele>
        <time>2017-09-20T13:45:30Z</time>
      </trkpt>
      <trkpt lat="42.4727" lon="2.53753">
        <ele>1051</ele>
        <time>2017-09-20T13:45:34Z</time>
      </trkpt>
      <trkpt lat="42.47266" lon="2.53756">
        <ele>1051</ele>
        <time>2017-09-20T13:45:40Z</time>
      </trkpt>
      <trkpt lat="42.47258" lon="2.53763">
        <ele>1049</ele>
        <time>2017-09-20T13:45:51Z</time>
      </trkpt>
      <trkpt lat="42.47249" lon="2.53761">
        <ele>1046</ele>
        <time>2017-09-20T13:46:04Z</time>
      </trkpt>
      <trkpt lat="42.47242" lon="2.5377">
        <ele>1044</ele>
        <time>2017-09-20T13:46:12Z</time>
      </trkpt>
      <trkpt lat="42.47234" lon="2.53775">
        <ele>1043</ele>
        <time>2017-09-20T13:46:37Z</time>
      </trkpt>
      <trkpt lat="42.47237" lon="2.53783">
        <ele>1041</ele>
        <time>2017-09-20T13:46:51Z</time>
      </trkpt>
      <trkpt lat="42.47243" lon="2.53786">
        <ele>1039</ele>
        <time>2017-09-20T13:47:05Z</time>
      </trkpt>
      <trkpt lat="42.47246" lon="2.53789">
        <ele>1038</ele>
        <time>2017-09-20T13:47:14Z</time>
      </trkpt>
      <trkpt lat="42.47245" lon="2.53794">
        <ele>1033</ele>
        <time>2017-09-20T13:47:44Z</time>
      </trkpt>
      <trkpt lat="42.47235" lon="2.53794">
        <ele>1032</ele>
        <time>2017-09-20T13:47:52Z</time>
      </trkpt>
      <trkpt lat="42.47231" lon="2.53796">
        <ele>1031</ele>
        <time>2017-09-20T13:47:57Z</time>
      </trkpt>
      <trkpt lat="42.47226" lon="2.53797">
        <ele>1031</ele>
        <time>2017-09-20T13:48:06Z</time>
      </trkpt>
      <trkpt lat="42.47221" lon="2.53795">
        <ele>1030</ele>
        <time>2017-09-20T13:48:12Z</time>
      </trkpt>
      <trkpt lat="42.47211" lon="2.538">
        <ele>1028</ele>
        <time>2017-09-20T13:48:27Z</time>
      </trkpt>
      <trkpt lat="42.47204" lon="2.53792">
        <ele>1026</ele>
        <time>2017-09-20T13:48:41Z</time>
      </trkpt>
      <trkpt lat="42.47192" lon="2.53799">
        <ele>1023</ele>
        <time>2017-09-20T13:48:51Z</time>
      </trkpt>
      <trkpt lat="42.47187" lon="2.53798">
        <ele>1022</ele>
        <time>2017-09-20T13:48:56Z</time>
      </trkpt>
      <trkpt lat="42.47183" lon="2.53795">
        <ele>1021</ele>
        <time>2017-09-20T13:49:02Z</time>
      </trkpt>
      <trkpt lat="42.47178" lon="2.53785">
        <ele>1020</ele>
        <time>2017-09-20T13:49:16Z</time>
      </trkpt>
      <trkpt lat="42.47173" lon="2.53776">
        <ele>1020</ele>
        <time>2017-09-20T13:50:56Z</time>
      </trkpt>
      <trkpt lat="42.47173" lon="2.5379">
        <ele>1019</ele>
        <time>2017-09-20T13:51:06Z</time>
      </trkpt>
      <trkpt lat="42.47176" lon="2.53802">
        <ele>1017</ele>
        <time>2017-09-20T13:51:18Z</time>
      </trkpt>
      <trkpt lat="42.47186" lon="2.53806">
        <ele>1016</ele>
        <time>2017-09-20T13:51:34Z</time>
      </trkpt>
      <trkpt lat="42.47189" lon="2.5381">
        <ele>1015</ele>
        <time>2017-09-20T13:51:42Z</time>
      </trkpt>
      <trkpt lat="42.47199" lon="2.53812">
        <ele>1012</ele>
        <time>2017-09-20T13:51:54Z</time>
      </trkpt>
      <trkpt lat="42.47212" lon="2.53836">
        <ele>1007</ele>
        <time>2017-09-20T13:52:30Z</time>
      </trkpt>
      <trkpt lat="42.4722" lon="2.53842">
        <ele>1006</ele>
        <time>2017-09-20T13:52:40Z</time>
      </trkpt>
      <trkpt lat="42.47223" lon="2.53855">
        <ele>1005</ele>
        <time>2017-09-20T13:52:54Z</time>
      </trkpt>
      <trkpt lat="42.47235" lon="2.53864">
        <ele>1004</ele>
        <time>2017-09-20T13:53:15Z</time>
      </trkpt>
      <trkpt lat="42.47237" lon="2.53873">
        <ele>1003</ele>
        <time>2017-09-20T13:53:29Z</time>
      </trkpt>
      <trkpt lat="42.47245" lon="2.53881">
        <ele>1001</ele>
        <time>2017-09-20T13:53:39Z</time>
      </trkpt>
      <trkpt lat="42.47248" lon="2.53887">
        <ele>999</ele>
        <time>2017-09-20T13:53:45Z</time>
      </trkpt>
      <trkpt lat="42.47252" lon="2.53899">
        <ele>996</ele>
        <time>2017-09-20T13:53:59Z</time>
      </trkpt>
      <trkpt lat="42.47264" lon="2.5391">
        <ele>993</ele>
        <time>2017-09-20T13:54:20Z</time>
      </trkpt>
      <trkpt lat="42.47266" lon="2.53915">
        <ele>991</ele>
        <time>2017-09-20T13:54:28Z</time>
      </trkpt>
      <trkpt lat="42.47274" lon="2.53923">
        <ele>988</ele>
        <time>2017-09-20T13:54:44Z</time>
      </trkpt>
      <trkpt lat="42.47279" lon="2.53924">
        <ele>988</ele>
        <time>2017-09-20T13:54:48Z</time>
      </trkpt>
      <trkpt lat="42.47282" lon="2.5393">
        <ele>987</ele>
        <time>2017-09-20T13:54:54Z</time>
      </trkpt>
      <trkpt lat="42.47283" lon="2.53937">
        <ele>986</ele>
        <time>2017-09-20T13:55:00Z</time>
      </trkpt>
      <trkpt lat="42.47285" lon="2.53943">
        <ele>985</ele>
        <time>2017-09-20T13:55:05Z</time>
      </trkpt>
      <trkpt lat="42.4729" lon="2.53954">
        <ele>983</ele>
        <time>2017-09-20T13:55:14Z</time>
      </trkpt>
      <trkpt lat="42.47289" lon="2.53961">
        <ele>982</ele>
        <time>2017-09-20T13:55:20Z</time>
      </trkpt>
      <trkpt lat="42.47294" lon="2.53972">
        <ele>981</ele>
        <time>2017-09-20T13:55:30Z</time>
      </trkpt>
      <trkpt lat="42.47303" lon="2.53978">
        <ele>979</ele>
        <time>2017-09-20T13:55:41Z</time>
      </trkpt>
      <trkpt lat="42.47303" lon="2.53985">
        <ele>978</ele>
        <time>2017-09-20T13:55:47Z</time>
      </trkpt>
      <trkpt lat="42.47308" lon="2.53998">
        <ele>977</ele>
        <time>2017-09-20T13:56:05Z</time>
      </trkpt>
      <trkpt lat="42.47311" lon="2.54003">
        <ele>976</ele>
        <time>2017-09-20T13:56:10Z</time>
      </trkpt>
      <trkpt lat="42.47313" lon="2.54015">
        <ele>974</ele>
        <time>2017-09-20T13:56:26Z</time>
      </trkpt>
      <trkpt lat="42.47312" lon="2.54022">
        <ele>973</ele>
        <time>2017-09-20T13:56:35Z</time>
      </trkpt>
      <trkpt lat="42.47299" lon="2.54032">
        <ele>971</ele>
        <time>2017-09-20T13:56:54Z</time>
      </trkpt>
      <trkpt lat="42.47298" lon="2.54038">
        <ele>971</ele>
        <time>2017-09-20T13:57:01Z</time>
      </trkpt>
      <trkpt lat="42.47302" lon="2.54042">
        <ele>970</ele>
        <time>2017-09-20T13:57:08Z</time>
      </trkpt>
      <trkpt lat="42.47308" lon="2.54052">
        <ele>969</ele>
        <time>2017-09-20T13:57:26Z</time>
      </trkpt>
      <trkpt lat="42.47305" lon="2.54057">
        <ele>968</ele>
        <time>2017-09-20T13:57:34Z</time>
      </trkpt>
      <trkpt lat="42.47303" lon="2.54064">
        <ele>968</ele>
        <time>2017-09-20T13:57:41Z</time>
      </trkpt>
      <trkpt lat="42.47304" lon="2.5407">
        <ele>966</ele>
        <time>2017-09-20T13:57:48Z</time>
      </trkpt>
      <trkpt lat="42.47313" lon="2.54088">
        <ele>963</ele>
        <time>2017-09-20T13:58:07Z</time>
      </trkpt>
      <trkpt lat="42.47321" lon="2.54095">
        <ele>961</ele>
        <time>2017-09-20T13:58:18Z</time>
      </trkpt>
      <trkpt lat="42.47321" lon="2.54101">
        <ele>960</ele>
        <time>2017-09-20T13:58:26Z</time>
      </trkpt>
      <trkpt lat="42.4732" lon="2.54107">
        <ele>959</ele>
        <time>2017-09-20T13:58:33Z</time>
      </trkpt>
      <trkpt lat="42.47328" lon="2.54115">
        <ele>957</ele>
        <time>2017-09-20T13:58:42Z</time>
      </trkpt>
      <trkpt lat="42.47325" lon="2.5412">
        <ele>956</ele>
        <time>2017-09-20T13:58:50Z</time>
      </trkpt>
      <trkpt lat="42.47329" lon="2.54125">
        <ele>956</ele>
        <time>2017-09-20T13:58:57Z</time>
      </trkpt>
      <trkpt lat="42.47333" lon="2.54137">
        <ele>953</ele>
        <time>2017-09-20T13:59:15Z</time>
      </trkpt>
      <trkpt lat="42.47334" lon="2.54143">
        <ele>951</ele>
        <time>2017-09-20T13:59:24Z</time>
      </trkpt>
      <trkpt lat="42.47336" lon="2.54162">
        <ele>948</ele>
        <time>2017-09-20T13:59:49Z</time>
      </trkpt>
      <trkpt lat="42.47327" lon="2.54194">
        <ele>945</ele>
        <time>2017-09-20T14:00:17Z</time>
      </trkpt>
      <trkpt lat="42.4733" lon="2.54201">
        <ele>944</ele>
        <time>2017-09-20T14:00:30Z</time>
      </trkpt>
      <trkpt lat="42.47331" lon="2.54207">
        <ele>943</ele>
        <time>2017-09-20T14:00:40Z</time>
      </trkpt>
      <trkpt lat="42.47328" lon="2.54213">
        <ele>942</ele>
        <time>2017-09-20T14:00:53Z</time>
      </trkpt>
      <trkpt lat="42.47326" lon="2.54229">
        <ele>939</ele>
        <time>2017-09-20T14:01:13Z</time>
      </trkpt>
      <trkpt lat="42.47322" lon="2.54234">
        <ele>938</ele>
        <time>2017-09-20T14:01:21Z</time>
      </trkpt>
      <trkpt lat="42.47317" lon="2.54234">
        <ele>937</ele>
        <time>2017-09-20T14:01:27Z</time>
      </trkpt>
      <trkpt lat="42.4731" lon="2.54244">
        <ele>937</ele>
        <time>2017-09-20T14:01:39Z</time>
      </trkpt>
      <trkpt lat="42.47308" lon="2.5425">
        <ele>936</ele>
        <time>2017-09-20T14:01:44Z</time>
      </trkpt>
      <trkpt lat="42.473" lon="2.54266">
        <ele>934</ele>
        <time>2017-09-20T14:01:59Z</time>
      </trkpt>
      <trkpt lat="42.47298" lon="2.54272">
        <ele>934</ele>
        <time>2017-09-20T14:02:03Z</time>
      </trkpt>
      <trkpt lat="42.47293" lon="2.54283">
        <ele>933</ele>
        <time>2017-09-20T14:02:12Z</time>
      </trkpt>
      <trkpt lat="42.47295" lon="2.54289">
        <ele>932</ele>
        <time>2017-09-20T14:02:19Z</time>
      </trkpt>
      <trkpt lat="42.47295" lon="2.54296">
        <ele>931</ele>
        <time>2017-09-20T14:02:25Z</time>
      </trkpt>
      <trkpt lat="42.47292" lon="2.54305">
        <ele>930</ele>
        <time>2017-09-20T14:02:37Z</time>
      </trkpt>
      <trkpt lat="42.47289" lon="2.54317">
        <ele>930</ele>
        <time>2017-09-20T14:02:55Z</time>
      </trkpt>
      <trkpt lat="42.47291" lon="2.54327">
        <ele>929</ele>
        <time>2017-09-20T14:03:09Z</time>
      </trkpt>
      <trkpt lat="42.47296" lon="2.54331">
        <ele>926</ele>
        <time>2017-09-20T14:03:18Z</time>
      </trkpt>
      <trkpt lat="42.47302" lon="2.54348">
        <ele>921</ele>
        <time>2017-09-20T14:03:44Z</time>
      </trkpt>
      <trkpt lat="42.47302" lon="2.54355">
        <ele>920</ele>
        <time>2017-09-20T14:03:50Z</time>
      </trkpt>
      <trkpt lat="42.47299" lon="2.5436">
        <ele>919</ele>
        <time>2017-09-20T14:03:55Z</time>
      </trkpt>
      <trkpt lat="42.47299" lon="2.54366">
        <ele>919</ele>
        <time>2017-09-20T14:04:02Z</time>
      </trkpt>
      <trkpt lat="42.47307" lon="2.54376">
        <ele>916</ele>
        <time>2017-09-20T14:04:15Z</time>
      </trkpt>
      <trkpt lat="42.4731" lon="2.54381">
        <ele>915</ele>
        <time>2017-09-20T14:04:44Z</time>
      </trkpt>
      <trkpt lat="42.47317" lon="2.54387">
        <ele>914</ele>
        <time>2017-09-20T14:05:12Z</time>
      </trkpt>
      <trkpt lat="42.4732" lon="2.54397">
        <ele>913</ele>
        <time>2017-09-20T14:05:30Z</time>
      </trkpt>
      <trkpt lat="42.47324" lon="2.54399">
        <ele>913</ele>
        <time>2017-09-20T14:05:35Z</time>
      </trkpt>
      <trkpt lat="42.47348" lon="2.54415">
        <ele>912</ele>
        <time>2017-09-20T14:05:59Z</time>
      </trkpt>
      <trkpt lat="42.47363" lon="2.54431">
        <ele>911</ele>
        <time>2017-09-20T14:06:18Z</time>
      </trkpt>
      <trkpt lat="42.47364" lon="2.54437">
        <ele>910</ele>
        <time>2017-09-20T14:06:23Z</time>
      </trkpt>
    </trkseg>
  </trk>
</gpx>